Wetterdaten: Donnerstag, 14.05.2015
Datum Zeit Temp. Aussen +5cm Feuchte Auss Luftdruck Regen Sonnenschein Regendauer Solar Windben
14.05.2015 00:00 11,4 C 10,0 C 73 % 1014,9 hPa 0,0 l/m 0 min 0 min 0 W/m 10,5 km/h (2 Bft)
14.05.2015 00:02 11,4 C 10,0 C 73 % 1015,0 hPa 0,0 l/m 0 min 0 min 0 W/m 8,4 km/h (2 Bft)
14.05.2015 00:06 11,3 C 10,0 C 73 % 1015,0 hPa 0,0 l/m 0 min 0 min 0 W/m 8,4 km/h (2 Bft)
14.05.2015 00:08 11,3 C 10,0 C 73 % 1015,0 hPa 0,0 l/m 0 min 0 min 0 W/m 6,3 km/h (2 Bft)
14.05.2015 00:10 11,3 C 10,0 C 73 % 1014,9 hPa 0,0 l/m 0 min 0 min 0 W/m 6,3 km/h (2 Bft)
14.05.2015 00:12 11,2 C 10,0 C 74 % 1014,9 hPa 0,0 l/m 0 min 0 min 0 W/m 8,4 km/h (2 Bft)
14.05.2015 00:14 11,2 C 10,0 C 74 % 1015,0 hPa 0,0 l/m 0 min 0 min 0 W/m 8,4 km/h (2 Bft)
14.05.2015 00:16 11,2 C 10,0 C 74 % 1014,9 hPa 0,0 l/m 0 min 0 min 0 W/m 10,5 km/h (2 Bft)
14.05.2015 00:18 11,1 C 10,0 C 74 % 1015,0 hPa 0,0 l/m 0 min 0 min 0 W/m 8,4 km/h (2 Bft)
14.05.2015 00:20 11,1 C 10,0 C 74 % 1015,0 hPa 0,0 l/m 0 min 0 min 0 W/m 8,4 km/h (2 Bft)
14.05.2015 00:22 11,1 C 10,0 C 74 % 1015,0 hPa 0,0 l/m 0 min 0 min 0 W/m 8,4 km/h (2 Bft)
14.05.2015 00:24 11,1 C 10,0 C 74 % 1015,0 hPa 0,0 l/m 0 min 0 min 0 W/m 8,4 km/h (2 Bft)
14.05.2015 00:26 11,0 C 10,0 C 74 % 1014,9 hPa 0,0 l/m 0 min 0 min 0 W/m 6,3 km/h (2 Bft)
14.05.2015 00:28 10,9 C 10,0 C 74 % 1014,9 hPa 0,0 l/m 0 min 0 min 0 W/m 6,3 km/h (2 Bft)
14.05.2015 00:30 10,9 C 10,0 C 74 % 1014,9 hPa 0,0 l/m 0 min 0 min 0 W/m 6,3 km/h (2 Bft)
14.05.2015 00:32 10,9 C 10,0 C 74 % 1014,9 hPa 0,0 l/m 0 min 0 min 0 W/m 6,3 km/h (2 Bft)
14.05.2015 00:34 10,8 C 10,0 C 74 % 1014,9 hPa 0,0 l/m 0 min 0 min 0 W/m 8,4 km/h (2 Bft)
14.05.2015 00:36 10,8 C 10,0 C 74 % 1014,9 hPa 0,0 l/m 0 min 0 min 0 W/m 8,4 km/h (2 Bft)
14.05.2015 00:38 10,8 C 10,0 C 74 % 1014,9 hPa 0,0 l/m 0 min 0 min 0 W/m 6,3 km/h (2 Bft)
14.05.2015 00:40 10,8 C 10,0 C 74 % 1014,9 hPa 0,0 l/m 0 min 0 min 0 W/m 10,5 km/h (2 Bft)
14.05.2015 00:42 10,7 C 10,0 C 75 % 1014,9 hPa 0,0 l/m 0 min 0 min 0 W/m 10,5 km/h (2 Bft)
14.05.2015 00:44 10,7 C 9,4 C 74 % 1015,0 hPa 0,0 l/m 0 min 0 min 0 W/m 10,5 km/h (2 Bft)
14.05.2015 00:46 10,6 C 9,4 C 74 % 1014,9 hPa 0,0 l/m 0 min 0 min 0 W/m 10,5 km/h (2 Bft)
14.05.2015 00:48 10,6 C 9,4 C 74 % 1014,9 hPa 0,0 l/m 0 min 0 min 0 W/m 10,5 km/h (2 Bft)
14.05.2015 00:50 10,6 C 9,4 C 74 % 1014,9 hPa 0,0 l/m 0 min 0 min 0 W/m 8,4 km/h (2 Bft)
14.05.2015 00:52 10,5 C 9,4 C 74 % 1014,9 hPa 0,0 l/m 0 min 0 min 0 W/m 4,2 km/h (1 Bft)
14.05.2015 00:54 10,4 C 9,4 C 75 % 1014,9 hPa 0,0 l/m 0 min 0 min 0 W/m 4,2 km/h (1 Bft)
14.05.2015 00:56 10,4 C 9,4 C 75 % 1014,9 hPa 0,0 l/m 0 min 0 min 0 W/m 4,2 km/h (1 Bft)
14.05.2015 00:58 10,4 C 9,4 C 75 % 1014,9 hPa 0,0 l/m 0 min 0 min 0 W/m 4,2 km/h (1 Bft)
14.05.2015 01:00 10,4 C 9,4 C 75 % 1014,8 hPa 0,0 l/m 0 min 0 min 0 W/m 4,2 km/h (1 Bft)
14.05.2015 01:02 10,3 C 9,4 C 75 % 1014,8 hPa 0,0 l/m 0 min 0 min 0 W/m 8,4 km/h (2 Bft)
14.05.2015 01:04 10,3 C 9,4 C 75 % 1014,8 hPa 0,0 l/m 0 min 0 min 0 W/m 6,3 km/h (2 Bft)
14.05.2015 01:06 10,3 C 9,4 C 75 % 1014,7 hPa 0,0 l/m 0 min 0 min 0 W/m 6,3 km/h (2 Bft)
14.05.2015 01:08 10,2 C 9,4 C 75 % 1014,8 hPa 0,0 l/m 0 min 0 min 0 W/m 4,2 km/h (1 Bft)
14.05.2015 01:10 10,2 C 9,4 C 75 % 1014,7 hPa 0,0 l/m 0 min 0 min 0 W/m 6,3 km/h (2 Bft)
14.05.2015 01:12 10,2 C 9,4 C 75 % 1014,7 hPa 0,0 l/m 0 min 0 min 0 W/m 6,3 km/h (2 Bft)
14.05.2015 01:14 10,1 C 9,4 C 75 % 1014,7 hPa 0,0 l/m 0 min 0 min 0 W/m 4,2 km/h (1 Bft)
14.05.2015 01:16 10,1 C 8,9 C 75 % 1014,6 hPa 0,0 l/m 0 min 0 min 0 W/m 4,2 km/h (1 Bft)
14.05.2015 01:18 10,0 C 8,9 C 75 % 1014,6 hPa 0,0 l/m 0 min 0 min 0 W/m 6,3 km/h (2 Bft)
14.05.2015 01:20 10,0 C 8,9 C 76 % 1014,6 hPa 0,0 l/m 0 min 0 min 0 W/m 6,3 km/h (2 Bft)
14.05.2015 01:22 9,9 C 8,9 C 76 % 1014,7 hPa 0,0 l/m 0 min 0 min 0 W/m 6,3 km/h (2 Bft)
14.05.2015 01:24 9,9 C 8,9 C 76 % 1014,7 hPa 0,0 l/m 0 min 0 min 0 W/m 6,3 km/h (2 Bft)
14.05.2015 01:26 9,8 C 8,9 C 76 % 1014,7 hPa 0,0 l/m 0 min 0 min 0 W/m 6,3 km/h (2 Bft)
14.05.2015 01:28 9,8 C 8,9 C 76 % 1014,8 hPa 0,0 l/m 0 min 0 min 0 W/m 6,3 km/h (2 Bft)
14.05.2015 01:30 9,8 C 8,9 C 76 % 1014,8 hPa 0,0 l/m 0 min 0 min 0 W/m 6,3 km/h (2 Bft)
14.05.2015 01:32 9,7 C 8,9 C 76 % 1014,8 hPa 0,0 l/m 0 min 0 min 0 W/m 8,4 km/h (2 Bft)
14.05.2015 01:34 9,7 C 8,9 C 76 % 1014,7 hPa 0,0 l/m 0 min 0 min 0 W/m 6,3 km/h (2 Bft)
14.05.2015 01:36 9,7 C 8,9 C 76 % 1014,7 hPa 0,0 l/m 0 min 0 min 0 W/m 6,3 km/h (2 Bft)
14.05.2015 01:38 9,6 C 8,9 C 76 % 1014,8 hPa 0,0 l/m 0 min 0 min 0 W/m 6,3 km/h (2 Bft)
14.05.2015 01:40 9,6 C 8,9 C 76 % 1014,8 hPa 0,0 l/m 0 min 0 min 0 W/m 6,3 km/h (2 Bft)
14.05.2015 01:42 9,6 C 8,9 C 77 % 1014,8 hPa 0,0 l/m 0 min 0 min 0 W/m 6,3 km/h (2 Bft)
14.05.2015 01:44 9,5 C 8,9 C 77 % 1014,8 hPa 0,0 l/m 0 min 0 min 0 W/m 8,4 km/h (2 Bft)
14.05.2015 01:46 9,4 C 8,9 C 77 % 1014,8 hPa 0,0 l/m 0 min 0 min 0 W/m 8,4 km/h (2 Bft)
14.05.2015 01:48 9,4 C 8,9 C 77 % 1014,8 hPa 0,0 l/m 0 min 0 min 0 W/m 10,5 km/h (2 Bft)
14.05.2015 01:50 9,4 C 8,9 C 77 % 1014,8 hPa 0,0 l/m 0 min 0 min 0 W/m 12,6 km/h (3 Bft)
14.05.2015 01:52 9,3 C 8,9 C 77 % 1014,8 hPa 0,0 l/m 0 min 0 min 0 W/m 6,3 km/h (2 Bft)
14.05.2015 01:54 9,3 C 8,9 C 78 % 1014,8 hPa 0,0 l/m 0 min 0 min 0 W/m 10,5 km/h (2 Bft)
14.05.2015 01:56 9,3 C 8,9 C 78 % 1014,8 hPa 0,0 l/m 0 min 0 min 0 W/m 10,5 km/h (2 Bft)
14.05.2015 01:58 9,2 C 8,9 C 78 % 1014,8 hPa 0,0 l/m 0 min 0 min 0 W/m 14,6 km/h (3 Bft)
14.05.2015 02:00 9,2 C 8,9 C 78 % 1014,9 hPa 0,0 l/m 0 min 0 min 0 W/m 6,3 km/h (2 Bft)
14.05.2015 02:02 9,2 C 8,9 C 78 % 1014,9 hPa 0,0 l/m 0 min 0 min 0 W/m 8,4 km/h (2 Bft)
14.05.2015 02:04 9,1 C 8,9 C 78 % 1014,8 hPa 0,0 l/m 0 min 0 min 0 W/m 10,5 km/h (2 Bft)
14.05.2015 02:06 9,1 C 8,9 C 78 % 1014,8 hPa 0,0 l/m 0 min 0 min 0 W/m 8,4 km/h (2 Bft)
14.05.2015 02:08 9,1 C 8,9 C 78 % 1014,8 hPa 0,0 l/m 0 min 0 min 0 W/m 8,4 km/h (2 Bft)
14.05.2015 02:10 9,0 C 8,9 C 79 % 1014,8 hPa 0,0 l/m 0 min 0 min 0 W/m 8,4 km/h (2 Bft)
14.05.2015 02:12 9,0 C 8,9 C 79 % 1014,8 hPa 0,0 l/m 0 min 0 min 0 W/m 8,4 km/h (2 Bft)
14.05.2015 02:14 8,9 C 8,9 C 79 % 1014,8 hPa 0,0 l/m 0 min 0 min 0 W/m 4,2 km/h (1 Bft)
14.05.2015 02:16 8,9 C 8,9 C 79 % 1014,8 hPa 0,0 l/m 0 min 0 min 0 W/m 8,4 km/h (2 Bft)
14.05.2015 02:18 8,9 C 8,3 C 79 % 1014,8 hPa 0,0 l/m 0 min 0 min 0 W/m 6,3 km/h (2 Bft)
14.05.2015 02:20 8,9 C 8,3 C 79 % 1014,8 hPa 0,0 l/m 0 min 0 min 0 W/m 8,4 km/h (2 Bft)
14.05.2015 02:22 8,8 C 8,3 C 79 % 1014,8 hPa 0,0 l/m 0 min 0 min 0 W/m 8,4 km/h (2 Bft)
14.05.2015 02:24 8,8 C 8,3 C 79 % 1014,8 hPa 0,0 l/m 0 min 0 min 0 W/m 6,3 km/h (2 Bft)
14.05.2015 02:26 8,8 C 8,3 C 79 % 1014,8 hPa 0,0 l/m 0 min 0 min 0 W/m 8,4 km/h (2 Bft)
14.05.2015 02:28 8,7 C 8,3 C 79 % 1014,8 hPa 0,0 l/m 0 min 0 min 0 W/m 6,3 km/h (2 Bft)
14.05.2015 02:30 8,7 C 8,3 C 80 % 1014,8 hPa 0,0 l/m 0 min 0 min 0 W/m 8,4 km/h (2 Bft)
14.05.2015 02:32 8,7 C 8,3 C 80 % 1014,8 hPa 0,0 l/m 0 min 0 min 0 W/m 10,5 km/h (2 Bft)
14.05.2015 02:34 8,7 C 8,3 C 80 % 1014,8 hPa 0,0 l/m 0 min 0 min 0 W/m 8,4 km/h (2 Bft)
14.05.2015 02:36 8,7 C 8,3 C 80 % 1014,8 hPa 0,0 l/m 0 min 0 min 0 W/m 8,4 km/h (2 Bft)
14.05.2015 02:38 8,6 C 8,3 C 80 % 1014,8 hPa 0,0 l/m 0 min 0 min 0 W/m 8,4 km/h (2 Bft)
14.05.2015 02:40 8,6 C 8,3 C 80 % 1014,8 hPa 0,0 l/m 0 min 0 min 0 W/m 8,4 km/h (2 Bft)
14.05.2015 02:42 8,6 C 8,3 C 80 % 1014,8 hPa 0,0 l/m 0 min 0 min 0 W/m 8,4 km/h (2 Bft)
14.05.2015 02:44 8,5 C 8,3 C 80 % 1014,8 hPa 0,0 l/m 0 min 0 min 0 W/m 8,4 km/h (2 Bft)
14.05.2015 02:46 8,5 C 8,3 C 81 % 1014,8 hPa 0,0 l/m 0 min 0 min 0 W/m 8,4 km/h (2 Bft)
14.05.2015 02:48 8,4 C 8,3 C 81 % 1014,8 hPa 0,0 l/m 0 min 0 min 0 W/m 10,5 km/h (2 Bft)
14.05.2015 02:50 8,4 C 8,3 C 81 % 1014,8 hPa 0,0 l/m 0 min 0 min 0 W/m 10,5 km/h (2 Bft)
14.05.2015 02:52 8,4 C 8,3 C 81 % 1014,8 hPa 0,0 l/m 0 min 0 min 0 W/m 10,5 km/h (2 Bft)
14.05.2015 02:54 8,3 C 8,3 C 81 % 1014,8 hPa 0,0 l/m 0 min 0 min 0 W/m 8,4 km/h (2 Bft)
14.05.2015 02:56 8,3 C 8,3 C 81 % 1014,8 hPa 0,0 l/m 0 min 0 min 0 W/m 6,3 km/h (2 Bft)
14.05.2015 02:58 8,3 C 8,3 C 81 % 1014,8 hPa 0,0 l/m 0 min 0 min 0 W/m 10,5 km/h (2 Bft)
14.05.2015 03:00 8,2 C 8,3 C 81 % 1014,8 hPa 0,0 l/m 0 min 0 min 0 W/m 8,4 km/h (2 Bft)
14.05.2015 03:02 8,2 C 8,3 C 82 % 1014,8 hPa 0,0 l/m 0 min 0 min 0 W/m 8,4 km/h (2 Bft)
14.05.2015 03:04 8,2 C 8,3 C 82 % 1014,8 hPa 0,0 l/m 0 min 0 min 0 W/m 6,3 km/h (2 Bft)
14.05.2015 03:06 8,2 C 7,8 C 82 % 1014,8 hPa 0,0 l/m 0 min 0 min 0 W/m 8,4 km/h (2 Bft)
14.05.2015 03:08 8,2 C 7,8 C 82 % 1014,8 hPa 0,0 l/m 0 min 0 min 0 W/m 6,3 km/h (2 Bft)
14.05.2015 03:10 8,1 C 7,8 C 82 % 1014,8 hPa 0,0 l/m 0 min 0 min 0 W/m 6,3 km/h (2 Bft)
14.05.2015 03:12 8,1 C 7,8 C 82 % 1014,9 hPa 0,0 l/m 0 min 0 min 0 W/m 6,3 km/h (2 Bft)
14.05.2015 03:14 8,1 C 7,8 C 82 % 1014,8 hPa 0,0 l/m 0 min 0 min 0 W/m 8,4 km/h (2 Bft)
14.05.2015 03:16 8,1 C 7,8 C 82 % 1014,9 hPa 0,0 l/m 0 min 0 min 0 W/m 8,4 km/h (2 Bft)
14.05.2015 03:18 8,0 C 7,8 C 82 % 1014,8 hPa 0,0 l/m 0 min 0 min 0 W/m 6,3 km/h (2 Bft)
14.05.2015 03:20 8,0 C 7,8 C 82 % 1014,8 hPa 0,0 l/m 0 min 0 min 0 W/m 8,4 km/h (2 Bft)
14.05.2015 03:22 7,9 C 7,8 C 82 % 1014,9 hPa 0,0 l/m 0 min 0 min 0 W/m 8,4 km/h (2 Bft)
14.05.2015 03:24 7,9 C 7,8 C 83 % 1014,8 hPa 0,0 l/m 0 min 0 min 0 W/m 6,3 km/h (2 Bft)
14.05.2015 03:26 7,9 C 7,8 C 83 % 1014,9 hPa 0,0 l/m 0 min 0 min 0 W/m 8,4 km/h (2 Bft)
14.05.2015 03:28 7,9 C 7,8 C 83 % 1014,9 hPa 0,0 l/m 0 min 0 min 0 W/m 6,3 km/h (2 Bft)
14.05.2015 03:30 7,8 C 7,8 C 83 % 1014,8 hPa 0,0 l/m 0 min 0 min 0 W/m 4,2 km/h (1 Bft)
14.05.2015 03:32 7,8 C 7,8 C 83 % 1014,9 hPa 0,0 l/m 0 min 0 min 0 W/m 6,3 km/h (2 Bft)
14.05.2015 03:34 7,8 C 7,8 C 83 % 1014,9 hPa 0,0 l/m 0 min 0 min 0 W/m 8,4 km/h (2 Bft)
14.05.2015 03:36 7,8 C 7,8 C 83 % 1014,9 hPa 0,0 l/m 0 min 0 min 0 W/m 10,5 km/h (2 Bft)
14.05.2015 03:38 7,7 C 7,8 C 83 % 1014,9 hPa 0,0 l/m 0 min 0 min 0 W/m 6,3 km/h (2 Bft)
14.05.2015 03:40 7,7 C 7,8 C 83 % 1014,9 hPa 0,0 l/m 0 min 0 min 0 W/m 8,4 km/h (2 Bft)
14.05.2015 03:42 7,7 C 7,8 C 83 % 1014,9 hPa 0,0 l/m 0 min 0 min 0 W/m 8,4 km/h (2 Bft)
14.05.2015 03:44 7,7 C 7,8 C 84 % 1014,9 hPa 0,0 l/m 0 min 0 min 0 W/m 8,4 km/h (2 Bft)
14.05.2015 03:46 7,6 C 7,8 C 84 % 1014,9 hPa 0,0 l/m 0 min 0 min 0 W/m 6,3 km/h (2 Bft)
14.05.2015 03:48 7,6 C 7,8 C 84 % 1014,8 hPa 0,0 l/m 0 min 0 min 0 W/m 6,3 km/h (2 Bft)
14.05.2015 03:50 7,6 C 7,8 C 84 % 1014,9 hPa 0,0 l/m 0 min 0 min 0 W/m 6,3 km/h (2 Bft)
14.05.2015 03:52 7,6 C 7,8 C 84 % 1014,9 hPa 0,0 l/m 0 min 0 min 0 W/m 6,3 km/h (2 Bft)
14.05.2015 03:54 7,6 C 7,8 C 84 % 1014,9 hPa 0,0 l/m 0 min 0 min 0 W/m 10,5 km/h (2 Bft)
14.05.2015 03:56 7,5 C 7,8 C 84 % 1014,9 hPa 0,0 l/m 0 min 0 min 0 W/m 8,4 km/h (2 Bft)
14.05.2015 03:58 7,5 C 7,8 C 84 % 1014,9 hPa 0,0 l/m 0 min 0 min 0 W/m 8,4 km/h (2 Bft)
14.05.2015 04:00 7,5 C 7,8 C 84 % 1014,9 hPa 0,0 l/m 0 min 0 min 0 W/m 8,4 km/h (2 Bft)
14.05.2015 04:02 7,4 C 7,8 C 84 % 1015,0 hPa 0,0 l/m 0 min 0 min 0 W/m 6,3 km/h (2 Bft)
14.05.2015 04:04 7,4 C 7,8 C 84 % 1015,0 hPa 0,0 l/m 0 min 0 min 0 W/m 4,2 km/h (1 Bft)
14.05.2015 04:06 7,4 C 7,8 C 84 % 1015,0 hPa 0,0 l/m 0 min 0 min 0 W/m 6,3 km/h (2 Bft)
14.05.2015 04:08 7,4 C 7,8 C 84 % 1015,0 hPa 0,0 l/m 0 min 0 min 0 W/m 8,4 km/h (2 Bft)
14.05.2015 04:10 7,4 C 7,8 C 84 % 1015,1 hPa 0,0 l/m 0 min 0 min 0 W/m 4,2 km/h (1 Bft)
14.05.2015 04:12 7,3 C 7,8 C 85 % 1015,1 hPa 0,0 l/m 0 min 0 min 0 W/m 6,3 km/h (2 Bft)
14.05.2015 04:14 7,3 C 7,8 C 85 % 1015,1 hPa 0,0 l/m 0 min 0 min 0 W/m 4,2 km/h (1 Bft)
14.05.2015 04:16 7,3 C 7,8 C 85 % 1015,0 hPa 0,0 l/m 0 min 0 min 0 W/m 6,3 km/h (2 Bft)
14.05.2015 04:18 7,3 C 7,2 C 85 % 1015,0 hPa 0,0 l/m 0 min 0 min 0 W/m 6,3 km/h (2 Bft)
14.05.2015 04:20 7,3 C 7,2 C 85 % 1015,0 hPa 0,0 l/m 0 min 0 min 0 W/m 4,2 km/h (1 Bft)
14.05.2015 04:22 7,2 C 7,8 C 85 % 1015,1 hPa 0,0 l/m 0 min 0 min 0 W/m 6,3 km/h (2 Bft)
14.05.2015 04:24 7,2 C 7,2 C 85 % 1015,1 hPa 0,0 l/m 0 min 0 min 0 W/m 6,3 km/h (2 Bft)
14.05.2015 04:26 7,2 C 7,2 C 85 % 1015,1 hPa 0,0 l/m 0 min 0 min 0 W/m 4,2 km/h (1 Bft)
14.05.2015 04:28 7,2 C 7,2 C 85 % 1015,1 hPa 0,0 l/m 0 min 0 min 0 W/m 4,2 km/h (1 Bft)
14.05.2015 04:30 7,1 C 7,2 C 85 % 1015,1 hPa 0,0 l/m 0 min 0 min 0 W/m 4,2 km/h (1 Bft)
14.05.2015 04:32 7,1 C 7,2 C 85 % 1015,1 hPa 0,0 l/m 0 min 0 min 0 W/m 6,3 km/h (2 Bft)
14.05.2015 04:34 7,1 C 7,2 C 85 % 1015,1 hPa 0,0 l/m 0 min 0 min 0 W/m 6,3 km/h (2 Bft)
14.05.2015 04:36 7,1 C 7,2 C 85 % 1015,1 hPa 0,0 l/m 0 min 0 min 0 W/m 6,3 km/h (2 Bft)
14.05.2015 04:38 7,0 C 7,2 C 85 % 1015,0 hPa 0,0 l/m 0 min 0 min 0 W/m 4,2 km/h (1 Bft)
14.05.2015 04:40 7,0 C 7,2 C 85 % 1015,1 hPa 0,0 l/m 0 min 0 min 0 W/m 4,2 km/h (1 Bft)
14.05.2015 04:42 7,0 C 7,2 C 85 % 1015,1 hPa 0,0 l/m 0 min 0 min 0 W/m 8,4 km/h (2 Bft)
14.05.2015 04:44 6,9 C 7,2 C 86 % 1015,1 hPa 0,0 l/m 0 min 0 min 0 W/m 6,3 km/h (2 Bft)
14.05.2015 04:46 6,9 C 7,2 C 86 % 1015,1 hPa 0,0 l/m 0 min 0 min 0 W/m 6,3 km/h (2 Bft)
14.05.2015 04:48 6,9 C 7,2 C 86 % 1015,1 hPa 0,0 l/m 0 min 0 min 0 W/m 8,4 km/h (2 Bft)
14.05.2015 04:50 6,9 C 7,2 C 86 % 1015,2 hPa 0,0 l/m 0 min 0 min 0 W/m 6,3 km/h (2 Bft)
14.05.2015 04:52 6,9 C 7,2 C 86 % 1015,2 hPa 0,0 l/m 0 min 0 min 0 W/m 4,2 km/h (1 Bft)
14.05.2015 04:54 6,9 C 7,2 C 86 % 1015,2 hPa 0,0 l/m 0 min 0 min 0 W/m 6,3 km/h (2 Bft)
14.05.2015 04:56 6,8 C 7,2 C 86 % 1015,2 hPa 0,0 l/m 0 min 0 min 0 W/m 4,2 km/h (1 Bft)
14.05.2015 04:58 6,8 C 7,2 C 86 % 1015,3 hPa 0,0 l/m 0 min 0 min 0 W/m 4,2 km/h (1 Bft)
14.05.2015 05:00 6,8 C 7,2 C 86 % 1015,3 hPa 0,0 l/m 0 min 0 min 0 W/m 6,3 km/h (2 Bft)
14.05.2015 05:02 6,8 C 7,2 C 86 % 1015,2 hPa 0,0 l/m 0 min 0 min 0 W/m 6,3 km/h (2 Bft)
14.05.2015 05:04 6,8 C 7,2 C 86 % 1015,2 hPa 0,0 l/m 0 min 0 min 0 W/m 6,3 km/h (2 Bft)
14.05.2015 05:06 6,8 C 7,2 C 86 % 1015,2 hPa 0,0 l/m 0 min 0 min 0 W/m 8,4 km/h (2 Bft)
14.05.2015 05:08 6,7 C 7,2 C 86 % 1015,3 hPa 0,0 l/m 0 min 0 min 0 W/m 8,4 km/h (2 Bft)
14.05.2015 05:10 6,7 C 7,2 C 86 % 1015,2 hPa 0,0 l/m 0 min 0 min 0 W/m 8,4 km/h (2 Bft)
14.05.2015 05:12 6,7 C 7,2 C 86 % 1015,2 hPa 0,0 l/m 0 min 0 min 0 W/m 6,3 km/h (2 Bft)
14.05.2015 05:14 6,7 C 7,2 C 87 % 1015,2 hPa 0,0 l/m 0 min 0 min 0 W/m 6,3 km/h (2 Bft)
14.05.2015 05:16 6,6 C 7,2 C 86 % 1015,2 hPa 0,0 l/m 0 min 0 min 0 W/m 6,3 km/h (2 Bft)
14.05.2015 05:18 6,6 C 7,2 C 87 % 1015,2 hPa 0,0 l/m 0 min 0 min 0 W/m 6,3 km/h (2 Bft)
14.05.2015 05:20 6,6 C 7,2 C 87 % 1015,2 hPa 0,0 l/m 0 min 0 min 0 W/m 6,3 km/h (2 Bft)
14.05.2015 05:22 6,6 C 7,2 C 87 % 1015,2 hPa 0,0 l/m 0 min 0 min 0 W/m 4,2 km/h (1 Bft)
14.05.2015 05:24 6,6 C 7,2 C 87 % 1015,2 hPa 0,0 l/m 0 min 0 min 0 W/m 4,2 km/h (1 Bft)
14.05.2015 05:26 6,6 C 7,2 C 87 % 1015,3 hPa 0,0 l/m 0 min 0 min 0 W/m 4,2 km/h (1 Bft)
14.05.2015 05:28 6,5 C 6,7 C 87 % 1015,2 hPa 0,0 l/m 0 min 0 min 0 W/m 4,2 km/h (1 Bft)
14.05.2015 05:30 6,5 C 6,7 C 87 % 1015,3 hPa 0,0 l/m 0 min 0 min 0 W/m 4,2 km/h (1 Bft)
14.05.2015 05:32 6,4 C 6,7 C 87 % 1015,3 hPa 0,0 l/m 0 min 0 min 0 W/m 6,3 km/h (2 Bft)
14.05.2015 05:34 6,4 C 6,7 C 87 % 1015,3 hPa 0,0 l/m 0 min 0 min 2 W/m 6,3 km/h (2 Bft)
14.05.2015 05:36 6,4 C 6,7 C 87 % 1015,3 hPa 0,0 l/m 0 min 0 min 5 W/m 4,2 km/h (1 Bft)
14.05.2015 05:38 6,4 C 6,7 C 87 % 1015,3 hPa 0,0 l/m 0 min 0 min 5 W/m 4,2 km/h (1 Bft)
14.05.2015 05:40 6,4 C 6,7 C 87 % 1015,3 hPa 0,0 l/m 0 min 0 min 5 W/m 4,2 km/h (1 Bft)
14.05.2015 05:42 6,4 C 6,7 C 87 % 1015,4 hPa 0,0 l/m 0 min 0 min 6 W/m 4,2 km/h (1 Bft)
14.05.2015 05:44 6,4 C 6,7 C 87 % 1015,4 hPa 0,0 l/m 0 min 0 min 7 W/m 4,2 km/h (1 Bft)
14.05.2015 05:46 6,3 C 6,7 C 87 % 1015,4 hPa 0,0 l/m 0 min 0 min 7 W/m 4,2 km/h (1 Bft)
14.05.2015 05:48 6,3 C 6,7 C 87 % 1015,4 hPa 0,0 l/m 0 min 0 min 9 W/m 4,2 km/h (1 Bft)
14.05.2015 05:50 6,3 C 6,7 C 87 % 1015,3 hPa 0,0 l/m 0 min 0 min 10 W/m 6,3 km/h (2 Bft)
14.05.2015 05:52 6,2 C 6,7 C 87 % 1015,3 hPa 0,0 l/m 0 min 0 min 11 W/m 4,2 km/h (1 Bft)
14.05.2015 05:54 6,2 C 6,7 C 87 % 1015,3 hPa 0,0 l/m 0 min 0 min 12 W/m 2,1 km/h (1 Bft)
14.05.2015 05:56 6,2 C 6,7 C 87 % 1015,4 hPa 0,0 l/m 0 min 0 min 12 W/m 4,2 km/h (1 Bft)
14.05.2015 05:58 6,2 C 6,7 C 87 % 1015,3 hPa 0,0 l/m 0 min 0 min 14 W/m 4,2 km/h (1 Bft)
14.05.2015 06:00 6,2 C 6,7 C 87 % 1015,3 hPa 0,0 l/m 0 min 0 min 15 W/m 4,2 km/h (1 Bft)
14.05.2015 06:02 6,2 C 6,7 C 87 % 1015,3 hPa 0,0 l/m 0 min 0 min 18 W/m 4,2 km/h (1 Bft)
14.05.2015 06:06 6,1 C 6,7 C 87 % 1015,2 hPa 0,0 l/m 2 min 0 min 19 W/m 4,2 km/h (1 Bft)
14.05.2015 06:08 6,1 C 6,7 C 87 % 1015,2 hPa 0,0 l/m 2 min 0 min 22 W/m 0,0 km/h (0 Bft)
14.05.2015 06:10 6,1 C 6,7 C 87 % 1015,2 hPa 0,0 l/m 2 min 0 min 25 W/m 2,1 km/h (1 Bft)
14.05.2015 06:12 6,0 C 6,7 C 87 % 1015,2 hPa 0,0 l/m 2 min 0 min 26 W/m 2,1 km/h (1 Bft)
14.05.2015 06:14 6,0 C 6,7 C 87 % 1015,2 hPa 0,0 l/m 2 min 0 min 29 W/m 2,1 km/h (1 Bft)
14.05.2015 06:16 6,0 C 6,1 C 87 % 1015,2 hPa 0,0 l/m 2 min 0 min 32 W/m 4,2 km/h (1 Bft)
14.05.2015 06:18 5,9 C 6,1 C 87 % 1015,2 hPa 0,0 l/m 2 min 0 min 33 W/m 4,2 km/h (1 Bft)
14.05.2015 06:20 5,9 C 6,7 C 87 % 1015,2 hPa 0,0 l/m 2 min 0 min 36 W/m 4,2 km/h (1 Bft)
14.05.2015 06:22 5,9 C 6,7 C 87 % 1015,2 hPa 0,0 l/m 2 min 0 min 38 W/m 4,2 km/h (1 Bft)
14.05.2015 06:24 5,9 C 6,7 C 88 % 1015,2 hPa 0,0 l/m 2 min 0 min 40 W/m 4,2 km/h (1 Bft)
14.05.2015 06:26 5,9 C 6,7 C 88 % 1015,2 hPa 0,0 l/m 2 min 0 min 43 W/m 4,2 km/h (1 Bft)
14.05.2015 06:28 5,9 C 6,7 C 88 % 1015,2 hPa 0,0 l/m 2 min 0 min 45 W/m 4,2 km/h (1 Bft)
14.05.2015 06:30 5,9 C 6,7 C 88 % 1015,3 hPa 0,0 l/m 2 min 0 min 47 W/m 4,2 km/h (1 Bft)
14.05.2015 06:32 5,9 C 6,7 C 88 % 1015,3 hPa 0,0 l/m 2 min 0 min 49 W/m 4,2 km/h (1 Bft)
14.05.2015 06:34 5,9 C 6,7 C 88 % 1015,2 hPa 0,0 l/m 2 min 0 min 52 W/m 4,2 km/h (1 Bft)
14.05.2015 06:36 5,9 C 6,7 C 89 % 1015,2 hPa 0,0 l/m 2 min 0 min 54 W/m 4,2 km/h (1 Bft)
14.05.2015 06:38 5,9 C 6,7 C 89 % 1015,2 hPa 0,0 l/m 2 min 0 min 57 W/m 6,3 km/h (2 Bft)
14.05.2015 06:40 5,9 C 7,2 C 89 % 1015,2 hPa 0,0 l/m 2 min 0 min 60 W/m 6,3 km/h (2 Bft)
14.05.2015 06:42 5,9 C 7,2 C 89 % 1015,2 hPa 0,0 l/m 2 min 0 min 63 W/m 4,2 km/h (1 Bft)
14.05.2015 06:45 6,0 C 7,2 C 89 % 1015,2 hPa 0,0 l/m 2 min 0 min 66 W/m 4,2 km/h (1 Bft)
14.05.2015 06:46 6,0 C 7,2 C 89 % 1015,2 hPa 0,0 l/m 1 min 0 min 69 W/m 4,2 km/h (1 Bft)
14.05.2015 06:50 6,1 C 7,2 C 90 % 1015,2 hPa 0,0 l/m 2 min 0 min 73 W/m 4,2 km/h (1 Bft)
14.05.2015 06:51 6,1 C 7,2 C 90 % 1015,3 hPa 0,0 l/m 1 min 0 min 78 W/m 6,3 km/h (2 Bft)
14.05.2015 06:56 6,2 C 7,2 C 90 % 1015,3 hPa 0,0 l/m 2 min 0 min 86 W/m 4,2 km/h (1 Bft)
14.05.2015 06:58 6,2 C 7,2 C 90 % 1015,3 hPa 0,0 l/m 2 min 0 min 90 W/m 4,2 km/h (1 Bft)
14.05.2015 07:00 6,2 C 7,2 C 90 % 1015,3 hPa 0,0 l/m 2 min 0 min 92 W/m 4,2 km/h (1 Bft)
14.05.2015 07:02 6,3 C 7,2 C 90 % 1015,3 hPa 0,0 l/m 2 min 0 min 95 W/m 4,2 km/h (1 Bft)
14.05.2015 07:04 6,3 C 7,2 C 90 % 1015,2 hPa 0,0 l/m 2 min 0 min 99 W/m 4,2 km/h (1 Bft)
14.05.2015 07:06 6,3 C 7,2 C 90 % 1015,3 hPa 0,0 l/m 2 min 0 min 104 W/m 4,2 km/h (1 Bft)
14.05.2015 07:08 6,3 C 7,2 C 90 % 1015,3 hPa 0,0 l/m 2 min 0 min 108 W/m 6,3 km/h (2 Bft)
14.05.2015 07:10 6,4 C 7,2 C 90 % 1015,3 hPa 0,0 l/m 2 min 0 min 112 W/m 6,3 km/h (2 Bft)
14.05.2015 07:12 6,4 C 7,2 C 90 % 1015,3 hPa 0,0 l/m 2 min 0 min 116 W/m 6,3 km/h (2 Bft)
14.05.2015 07:14 6,4 C 7,2 C 90 % 1015,3 hPa 0,0 l/m 2 min 0 min 120 W/m 6,3 km/h (2 Bft)
14.05.2015 07:16 6,4 C 7,2 C 90 % 1015,3 hPa 0,0 l/m 2 min 0 min 123 W/m 8,4 km/h (2 Bft)
14.05.2015 07:18 6,4 C 7,2 C 91 % 1015,3 hPa 0,0 l/m 2 min 0 min 126 W/m 8,4 km/h (2 Bft)
14.05.2015 07:20 6,4 C 7,2 C 91 % 1015,3 hPa 0,0 l/m 2 min 0 min 130 W/m 10,5 km/h (2 Bft)
14.05.2015 07:22 6,5 C 7,2 C 91 % 1015,3 hPa 0,0 l/m 2 min 0 min 134 W/m 8,4 km/h (2 Bft)
14.05.2015 07:24 6,6 C 7,2 C 91 % 1015,3 hPa 0,0 l/m 2 min 0 min 139 W/m 8,4 km/h (2 Bft)
14.05.2015 07:26 6,6 C 7,2 C 91 % 1015,3 hPa 0,0 l/m 2 min 0 min 143 W/m 6,3 km/h (2 Bft)
14.05.2015 07:28 6,7 C 7,2 C 91 % 1015,3 hPa 0,0 l/m 2 min 0 min 148 W/m 6,3 km/h (2 Bft)
14.05.2015 07:30 6,7 C 7,2 C 90 % 1015,3 hPa 0,0 l/m 2 min 0 min 151 W/m 8,4 km/h (2 Bft)
14.05.2015 07:32 6,8 C 7,2 C 90 % 1015,3 hPa 0,0 l/m 2 min 0 min 155 W/m 14,6 km/h (3 Bft)
14.05.2015 07:34 6,8 C 7,8 C 91 % 1015,2 hPa 0,0 l/m 2 min 0 min 161 W/m 8,4 km/h (2 Bft)
14.05.2015 07:36 6,9 C 7,8 C 90 % 1015,2 hPa 0,0 l/m 2 min 0 min 165 W/m 10,5 km/h (2 Bft)
14.05.2015 07:38 6,9 C 7,8 C 90 % 1015,2 hPa 0,0 l/m 2 min 0 min 171 W/m 6,3 km/h (2 Bft)
14.05.2015 07:40 7,0 C 7,8 C 90 % 1015,2 hPa 0,0 l/m 2 min 0 min 176 W/m 10,5 km/h (2 Bft)
14.05.2015 07:42 7,1 C 7,8 C 90 % 1015,2 hPa 0,0 l/m 2 min 0 min 181 W/m 10,5 km/h (2 Bft)
14.05.2015 07:44 7,1 C 7,8 C 90 % 1015,2 hPa 0,0 l/m 2 min 0 min 187 W/m 10,5 km/h (2 Bft)
14.05.2015 07:46 7,2 C 7,8 C 89 % 1015,2 hPa 0,0 l/m 2 min 0 min 192 W/m 10,5 km/h (2 Bft)
14.05.2015 07:48 7,3 C 7,8 C 89 % 1015,3 hPa 0,0 l/m 2 min 0 min 197 W/m 10,5 km/h (2 Bft)
14.05.2015 07:50 7,3 C 7,8 C 89 % 1015,3 hPa 0,0 l/m 2 min 0 min 202 W/m 6,3 km/h (2 Bft)
14.05.2015 07:52 7,4 C 7,8 C 88 % 1015,3 hPa 0,0 l/m 2 min 0 min 207 W/m 8,4 km/h (2 Bft)
14.05.2015 07:54 7,5 C 7,8 C 88 % 1015,3 hPa 0,0 l/m 2 min 0 min 213 W/m 12,6 km/h (3 Bft)
14.05.2015 07:56 7,6 C 7,8 C 88 % 1015,3 hPa 0,0 l/m 2 min 0 min 220 W/m 16,7 km/h (3 Bft)
14.05.2015 07:58 7,7 C 7,8 C 87 % 1015,3 hPa 0,0 l/m 2 min 0 min 227 W/m 14,6 km/h (3 Bft)
14.05.2015 08:00 7,7 C 7,8 C 86 % 1015,3 hPa 0,0 l/m 2 min 0 min 233 W/m 18,8 km/h (3 Bft)
14.05.2015 08:02 7,8 C 7,8 C 86 % 1015,3 hPa 0,0 l/m 2 min 0 min 240 W/m 14,6 km/h (3 Bft)
14.05.2015 08:04 7,9 C 7,8 C 85 % 1015,3 hPa 0,0 l/m 2 min 0 min 246 W/m 18,8 km/h (3 Bft)
14.05.2015 08:06 8,0 C 7,8 C 84 % 1015,3 hPa 0,0 l/m 2 min 0 min 252 W/m 16,7 km/h (3 Bft)
14.05.2015 08:08 8,1 C 7,8 C 83 % 1015,2 hPa 0,0 l/m 2 min 0 min 258 W/m 14,6 km/h (3 Bft)
14.05.2015 08:10 8,2 C 7,8 C 82 % 1015,2 hPa 0,0 l/m 2 min 0 min 265 W/m 16,7 km/h (3 Bft)
14.05.2015 08:12 8,3 C 7,8 C 81 % 1015,3 hPa 0,0 l/m 2 min 0 min 272 W/m 14,6 km/h (3 Bft)
14.05.2015 08:14 8,3 C 7,8 C 81 % 1015,3 hPa 0,0 l/m 2 min 0 min 278 W/m 16,7 km/h (3 Bft)
14.05.2015 08:16 8,4 C 7,8 C 81 % 1015,3 hPa 0,0 l/m 2 min 0 min 284 W/m 20,9 km/h (4 Bft)
14.05.2015 08:18 8,5 C 7,8 C 80 % 1015,4 hPa 0,0 l/m 2 min 0 min 288 W/m 14,6 km/h (3 Bft)
14.05.2015 08:20 8,5 C 8,3 C 79 % 1015,3 hPa 0,0 l/m 2 min 0 min 296 W/m 16,7 km/h (3 Bft)
14.05.2015 08:22 8,6 C 8,3 C 79 % 1015,3 hPa 0,0 l/m 2 min 0 min 302 W/m 12,6 km/h (3 Bft)
14.05.2015 08:24 8,7 C 8,3 C 78 % 1015,3 hPa 0,0 l/m 2 min 0 min 307 W/m 18,8 km/h (3 Bft)
14.05.2015 08:26 8,7 C 8,3 C 78 % 1015,3 hPa 0,0 l/m 2 min 0 min 313 W/m 16,7 km/h (3 Bft)
14.05.2015 08:28 8,8 C 8,3 C 77 % 1015,3 hPa 0,0 l/m 2 min 0 min 320 W/m 20,9 km/h (4 Bft)
14.05.2015 08:30 8,9 C 8,3 C 77 % 1015,3 hPa 0,0 l/m 2 min 0 min 326 W/m 14,6 km/h (3 Bft)
14.05.2015 08:32 8,9 C 8,3 C 77 % 1015,3 hPa 0,0 l/m 2 min 0 min 332 W/m 14,6 km/h (3 Bft)
14.05.2015 08:34 9,1 C 8,3 C 76 % 1015,3 hPa 0,0 l/m 2 min 0 min 338 W/m 18,8 km/h (3 Bft)
14.05.2015 08:36 9,1 C 8,3 C 76 % 1015,3 hPa 0,0 l/m 2 min 0 min 346 W/m 20,9 km/h (4 Bft)
14.05.2015 08:38 9,2 C 8,3 C 75 % 1015,3 hPa 0,0 l/m 2 min 0 min 352 W/m 18,8 km/h (3 Bft)
14.05.2015 08:40 9,2 C 8,3 C 75 % 1015,3 hPa 0,0 l/m 2 min 0 min 358 W/m 14,6 km/h (3 Bft)
14.05.2015 08:42 9,3 C 8,3 C 75 % 1015,3 hPa 0,0 l/m 2 min 0 min 364 W/m 16,7 km/h (3 Bft)
14.05.2015 08:44 9,4 C 8,3 C 75 % 1015,3 hPa 0,0 l/m 2 min 0 min 370 W/m 16,7 km/h (3 Bft)
14.05.2015 08:46 9,5 C 8,3 C 74 % 1015,3 hPa 0,0 l/m 2 min 0 min 374 W/m 23,0 km/h (4 Bft)
14.05.2015 08:48 9,5 C 8,3 C 73 % 1015,2 hPa 0,0 l/m 2 min 0 min 380 W/m 16,7 km/h (3 Bft)
14.05.2015 08:50 9,6 C 8,3 C 73 % 1015,2 hPa 0,0 l/m 2 min 0 min 387 W/m 16,7 km/h (3 Bft)
14.05.2015 08:52 9,6 C 8,3 C 73 % 1015,1 hPa 0,0 l/m 2 min 0 min 390 W/m 12,6 km/h (3 Bft)
14.05.2015 08:54 9,7 C 8,3 C 73 % 1015,2 hPa 0,0 l/m 2 min 0 min 397 W/m 20,9 km/h (4 Bft)
14.05.2015 08:56 9,8 C 8,9 C 74 % 1015,2 hPa 0,0 l/m 2 min 0 min 403 W/m 18,8 km/h (3 Bft)
14.05.2015 08:58 9,8 C 8,9 C 74 % 1015,2 hPa 0,0 l/m 2 min 0 min 413 W/m 14,6 km/h (3 Bft)
14.05.2015 09:00 9,9 C 8,9 C 73 % 1015,2 hPa 0,0 l/m 2 min 0 min 417 W/m 14,6 km/h (3 Bft)
14.05.2015 09:02 10,0 C 8,9 C 73 % 1015,2 hPa 0,0 l/m 2 min 0 min 423 W/m 18,8 km/h (3 Bft)
14.05.2015 09:04 10,1 C 8,9 C 72 % 1015,2 hPa 0,0 l/m 2 min 0 min 429 W/m 18,8 km/h (3 Bft)
14.05.2015 09:06 10,1 C 8,9 C 72 % 1015,2 hPa 0,0 l/m 2 min 0 min 434 W/m 20,9 km/h (4 Bft)
14.05.2015 09:08 10,2 C 8,9 C 71 % 1015,2 hPa 0,0 l/m 2 min 0 min 441 W/m 18,8 km/h (3 Bft)
14.05.2015 09:10 10,2 C 8,9 C 71 % 1015,2 hPa 0,0 l/m 2 min 0 min 447 W/m 14,6 km/h (3 Bft)
14.05.2015 09:12 10,3 C 8,9 C 71 % 1015,2 hPa 0,0 l/m 2 min 0 min 453 W/m 12,6 km/h (3 Bft)
14.05.2015 09:14 10,3 C 8,9 C 71 % 1015,2 hPa 0,0 l/m 2 min 0 min 462 W/m 18,8 km/h (3 Bft)
14.05.2015 09:16 10,4 C 8,9 C 71 % 1015,2 hPa 0,0 l/m 2 min 0 min 468 W/m 14,6 km/h (3 Bft)
14.05.2015 09:18 10,5 C 8,9 C 71 % 1015,2 hPa 0,0 l/m 2 min 0 min 473 W/m 14,6 km/h (3 Bft)
14.05.2015 09:20 10,6 C 8,9 C 71 % 1015,1 hPa 0,0 l/m 2 min 0 min 480 W/m 16,7 km/h (3 Bft)
14.05.2015 09:22 10,6 C 9,4 C 71 % 1015,2 hPa 0,0 l/m 2 min 0 min 487 W/m 10,5 km/h (2 Bft)
14.05.2015 09:24 10,7 C 9,4 C 71 % 1015,2 hPa 0,0 l/m 2 min 0 min 492 W/m 18,8 km/h (3 Bft)
14.05.2015 09:26 10,9 C 9,4 C 71 % 1015,2 hPa 0,0 l/m 2 min 0 min 499 W/m 18,8 km/h (3 Bft)
14.05.2015 09:28 11,0 C 9,4 C 70 % 1015,2 hPa 0,0 l/m 2 min 0 min 503 W/m 14,6 km/h (3 Bft)
14.05.2015 09:30 11,1 C 10,0 C 70 % 1015,1 hPa 0,0 l/m 2 min 0 min 512 W/m 12,6 km/h (3 Bft)
14.05.2015 09:32 11,2 C 10,0 C 69 % 1015,1 hPa 0,0 l/m 2 min 0 min 521 W/m 18,8 km/h (3 Bft)
14.05.2015 09:34 11,3 C 10,0 C 69 % 1015,1 hPa 0,0 l/m 2 min 0 min 526 W/m 14,6 km/h (3 Bft)
14.05.2015 09:36 11,3 C 10,6 C 68 % 1015,1 hPa 0,0 l/m 2 min 0 min 535 W/m 14,6 km/h (3 Bft)
14.05.2015 09:38 11,4 C 10,6 C 68 % 1015,0 hPa 0,0 l/m 2 min 0 min 541 W/m 16,7 km/h (3 Bft)
14.05.2015 09:40 11,4 C 11,1 C 67 % 1015,0 hPa 0,0 l/m 2 min 0 min 550 W/m 16,7 km/h (3 Bft)
14.05.2015 09:42 11,4 C 11,1 C 68 % 1015,1 hPa 0,0 l/m 2 min 0 min 556 W/m 16,7 km/h (3 Bft)
14.05.2015 09:44 11,4 C 11,7 C 67 % 1015,0 hPa 0,0 l/m 2 min 0 min 549 W/m 10,5 km/h (2 Bft)
14.05.2015 09:46 11,5 C 11,7 C 67 % 1015,1 hPa 0,0 l/m 2 min 0 min 532 W/m 14,6 km/h (3 Bft)
14.05.2015 09:48 11,6 C 11,7 C 67 % 1015,1 hPa 0,0 l/m 2 min 0 min 525 W/m 14,6 km/h (3 Bft)
14.05.2015 09:50 11,7 C 11,7 C 68 % 1015,0 hPa 0,0 l/m 2 min 0 min 542 W/m 16,7 km/h (3 Bft)
14.05.2015 09:52 11,7 C 11,7 C 67 % 1015,1 hPa 0,0 l/m 2 min 0 min 547 W/m 10,5 km/h (2 Bft)
14.05.2015 09:54 11,8 C 11,7 C 67 % 1015,0 hPa 0,0 l/m 2 min 0 min 554 W/m 10,5 km/h (2 Bft)
14.05.2015 09:56 11,9 C 11,7 C 66 % 1015,0 hPa 0,0 l/m 2 min 0 min 547 W/m 10,5 km/h (2 Bft)
14.05.2015 09:58 11,9 C 11,1 C 66 % 1015,0 hPa 0,0 l/m 2 min 0 min 531 W/m 20,9 km/h (4 Bft)
14.05.2015 10:00 11,9 C 11,1 C 66 % 1014,9 hPa 0,0 l/m 2 min 0 min 536 W/m 14,6 km/h (3 Bft)
14.05.2015 10:02 11,9 C 11,1 C 66 % 1014,9 hPa 0,0 l/m 2 min 0 min 547 W/m 6,3 km/h (2 Bft)
14.05.2015 10:04 12,0 C 11,1 C 67 % 1014,9 hPa 0,0 l/m 2 min 0 min 577 W/m 16,7 km/h (3 Bft)
14.05.2015 10:06 12,0 C 11,1 C 66 % 1014,9 hPa 0,0 l/m 2 min 0 min 584 W/m 14,6 km/h (3 Bft)
14.05.2015 10:08 12,1 C 11,7 C 66 % 1014,8 hPa 0,0 l/m 2 min 0 min 580 W/m 10,5 km/h (2 Bft)
14.05.2015 10:10 12,1 C 11,7 C 66 % 1014,9 hPa 0,0 l/m 2 min 0 min 578 W/m 12,6 km/h (3 Bft)
14.05.2015 10:12 12,1 C 11,7 C 66 % 1014,8 hPa 0,0 l/m 2 min 0 min 584 W/m 8,4 km/h (2 Bft)
14.05.2015 10:14 12,2 C 11,7 C 66 % 1014,9 hPa 0,0 l/m 2 min 0 min 586 W/m 10,5 km/h (2 Bft)
14.05.2015 10:16 12,2 C 11,7 C 65 % 1014,8 hPa 0,0 l/m 2 min 0 min 589 W/m 14,6 km/h (3 Bft)
14.05.2015 10:18 12,2 C 11,1 C 64 % 1014,8 hPa 0,0 l/m 2 min 0 min 606 W/m 12,6 km/h (3 Bft)
14.05.2015 10:20 12,2 C 11,1 C 64 % 1014,8 hPa 0,0 l/m 2 min 0 min 608 W/m 14,6 km/h (3 Bft)
14.05.2015 10:22 12,2 C 11,1 C 65 % 1014,9 hPa 0,0 l/m 2 min 0 min 606 W/m 10,5 km/h (2 Bft)
14.05.2015 10:24 12,3 C 11,1 C 66 % 1014,8 hPa 0,0 l/m 2 min 0 min 619 W/m 6,3 km/h (2 Bft)
14.05.2015 10:26 12,3 C 11,1 C 65 % 1014,8 hPa 0,0 l/m 2 min 0 min 644 W/m 16,7 km/h (3 Bft)
14.05.2015 10:28 12,4 C 11,1 C 65 % 1014,8 hPa 0,0 l/m 2 min 0 min 636 W/m 8,4 km/h (2 Bft)
14.05.2015 10:30 12,4 C 11,1 C 65 % 1014,8 hPa 0,0 l/m 2 min 0 min 644 W/m 8,4 km/h (2 Bft)
14.05.2015 10:32 12,4 C 11,1 C 65 % 1014,8 hPa 0,0 l/m 2 min 0 min 659 W/m 6,3 km/h (2 Bft)
14.05.2015 10:34 12,5 C 11,7 C 64 % 1014,8 hPa 0,0 l/m 2 min 0 min 664 W/m 8,4 km/h (2 Bft)
14.05.2015 10:36 12,6 C 11,7 C 64 % 1014,7 hPa 0,0 l/m 2 min 0 min 666 W/m 8,4 km/h (2 Bft)
14.05.2015 10:38 12,7 C 11,7 C 65 % 1014,7 hPa 0,0 l/m 2 min 0 min 665 W/m 14,6 km/h (3 Bft)
14.05.2015 10:40 12,8 C 11,7 C 65 % 1014,7 hPa 0,0 l/m 2 min 0 min 669 W/m 14,6 km/h (3 Bft)
14.05.2015 10:42 12,9 C 11,7 C 63 % 1014,6 hPa 0,0 l/m 2 min 0 min 673 W/m 10,5 km/h (2 Bft)
14.05.2015 10:44 13,0 C 11,7 C 63 % 1014,6 hPa 0,0 l/m 2 min 0 min 677 W/m 14,6 km/h (3 Bft)
14.05.2015 10:46 13,0 C 11,7 C 64 % 1014,6 hPa 0,0 l/m 2 min 0 min 681 W/m 12,6 km/h (3 Bft)
14.05.2015 10:48 13,0 C 11,7 C 63 % 1014,5 hPa 0,0 l/m 2 min 0 min 684 W/m 10,5 km/h (2 Bft)
14.05.2015 10:50 12,9 C 11,7 C 62 % 1014,5 hPa 0,0 l/m 2 min 0 min 690 W/m 8,4 km/h (2 Bft)
14.05.2015 10:52 12,9 C 11,7 C 63 % 1014,4 hPa 0,0 l/m 2 min 0 min 695 W/m 14,6 km/h (3 Bft)
14.05.2015 10:54 12,9 C 11,7 C 63 % 1014,5 hPa 0,0 l/m 2 min 0 min 699 W/m 16,7 km/h (3 Bft)
14.05.2015 10:56 12,9 C 11,7 C 62 % 1014,5 hPa 0,0 l/m 2 min 0 min 700 W/m 12,6 km/h (3 Bft)
14.05.2015 10:58 12,9 C 11,7 C 63 % 1014,5 hPa 0,0 l/m 2 min 0 min 701 W/m 16,7 km/h (3 Bft)
14.05.2015 11:00 12,9 C 11,7 C 63 % 1014,4 hPa 0,0 l/m 2 min 0 min 706 W/m 14,6 km/h (3 Bft)
14.05.2015 11:02 13,1 C 12,2 C 63 % 1014,3 hPa 0,0 l/m 2 min 0 min 712 W/m 14,6 km/h (3 Bft)
14.05.2015 11:04 13,1 C 12,2 C 63 % 1014,3 hPa 0,0 l/m 2 min 0 min 717 W/m 10,5 km/h (2 Bft)
14.05.2015 11:06 13,2 C 11,7 C 62 % 1014,3 hPa 0,0 l/m 2 min 0 min 721 W/m 12,6 km/h (3 Bft)
14.05.2015 11:08 13,3 C 12,2 C 63 % 1014,3 hPa 0,0 l/m 2 min 0 min 725 W/m 16,7 km/h (3 Bft)
14.05.2015 11:10 13,3 C 12,2 C 62 % 1014,3 hPa 0,0 l/m 2 min 0 min 732 W/m 16,7 km/h (3 Bft)
14.05.2015 11:12 13,3 C 12,2 C 61 % 1014,3 hPa 0,0 l/m 2 min 0 min 723 W/m 14,6 km/h (3 Bft)
14.05.2015 11:14 13,3 C 11,7 C 61 % 1014,3 hPa 0,0 l/m 2 min 0 min 705 W/m 14,6 km/h (3 Bft)
14.05.2015 11:16 13,3 C 12,2 C 63 % 1014,3 hPa 0,0 l/m 2 min 0 min 738 W/m 6,3 km/h (2 Bft)
14.05.2015 11:18 13,5 C 12,2 C 63 % 1014,3 hPa 0,0 l/m 2 min 0 min 710 W/m 14,6 km/h (3 Bft)
14.05.2015 11:20 13,6 C 12,2 C 62 % 1014,3 hPa 0,0 l/m 2 min 0 min 670 W/m 10,5 km/h (2 Bft)
14.05.2015 11:22 13,7 C 12,2 C 60 % 1014,3 hPa 0,0 l/m 2 min 0 min 711 W/m 8,4 km/h (2 Bft)
14.05.2015 11:24 13,7 C 12,2 C 61 % 1014,3 hPa 0,0 l/m 2 min 0 min 753 W/m 6,3 km/h (2 Bft)
14.05.2015 11:26 13,8 C 12,2 C 62 % 1014,3 hPa 0,0 l/m 2 min 0 min 760 W/m 4,2 km/h (1 Bft)
14.05.2015 11:28 14,0 C 12,2 C 63 % 1014,3 hPa 0,0 l/m 2 min 0 min 762 W/m 8,4 km/h (2 Bft)
14.05.2015 11:30 14,2 C 12,8 C 62 % 1014,3 hPa 0,0 l/m 2 min 0 min 771 W/m 8,4 km/h (2 Bft)
14.05.2015 11:32 14,4 C 12,8 C 63 % 1014,3 hPa 0,0 l/m 2 min 0 min 775 W/m 8,4 km/h (2 Bft)
14.05.2015 11:34 14,5 C 12,8 C 60 % 1014,2 hPa 0,0 l/m 2 min 0 min 800 W/m 6,3 km/h (2 Bft)
14.05.2015 11:36 14,7 C 12,8 C 59 % 1014,3 hPa 0,0 l/m 2 min 0 min 802 W/m 8,4 km/h (2 Bft)
14.05.2015 11:38 14,8 C 12,8 C 60 % 1014,2 hPa 0,0 l/m 2 min 0 min 779 W/m 18,8 km/h (3 Bft)
14.05.2015 11:40 14,8 C 12,8 C 58 % 1014,3 hPa 0,0 l/m 2 min 0 min 782 W/m 16,7 km/h (3 Bft)
14.05.2015 11:42 14,7 C 12,8 C 58 % 1014,2 hPa 0,0 l/m 2 min 0 min 782 W/m 16,7 km/h (3 Bft)
14.05.2015 11:44 14,7 C 12,8 C 58 % 1014,2 hPa 0,0 l/m 2 min 0 min 788 W/m 14,6 km/h (3 Bft)
14.05.2015 11:46 14,7 C 12,8 C 58 % 1014,2 hPa 0,0 l/m 2 min 0 min 792 W/m 10,5 km/h (2 Bft)
14.05.2015 11:48 14,7 C 12,8 C 58 % 1014,1 hPa 0,0 l/m 2 min 0 min 796 W/m 6,3 km/h (2 Bft)
14.05.2015 11:50 14,7 C 12,8 C 59 % 1014,1 hPa 0,0 l/m 2 min 0 min 796 W/m 14,6 km/h (3 Bft)
14.05.2015 11:52 14,6 C 12,8 C 58 % 1014,1 hPa 0,0 l/m 2 min 0 min 796 W/m 12,6 km/h (3 Bft)
14.05.2015 11:54 14,6 C 12,8 C 58 % 1014,1 hPa 0,0 l/m 2 min 0 min 795 W/m 20,9 km/h (4 Bft)
14.05.2015 11:56 14,4 C 12,8 C 58 % 1014,1 hPa 0,0 l/m 2 min 0 min 790 W/m 16,7 km/h (3 Bft)
14.05.2015 11:58 14,5 C 12,8 C 61 % 1014,0 hPa 0,0 l/m 2 min 0 min 794 W/m 16,7 km/h (3 Bft)
14.05.2015 12:00 14,5 C 12,8 C 59 % 1014,0 hPa 0,0 l/m 2 min 0 min 794 W/m 20,9 km/h (4 Bft)
14.05.2015 12:02 14,5 C 12,8 C 57 % 1014,0 hPa 0,0 l/m 2 min 0 min 794 W/m 16,7 km/h (3 Bft)
14.05.2015 12:06 14,4 C 12,8 C 58 % 1013,9 hPa 0,0 l/m 2 min 0 min 810 W/m 18,8 km/h (3 Bft)
14.05.2015 12:08 14,5 C 13,3 C 60 % 1014,0 hPa 0,0 l/m 2 min 0 min 793 W/m 16,7 km/h (3 Bft)
14.05.2015 12:10 14,7 C 13,3 C 59 % 1014,0 hPa 0,0 l/m 2 min 0 min 775 W/m 8,4 km/h (2 Bft)
14.05.2015 12:12 14,7 C 13,3 C 57 % 1013,9 hPa 0,0 l/m 2 min 0 min 775 W/m 10,5 km/h (2 Bft)
14.05.2015 12:14 14,8 C 13,3 C 58 % 1014,0 hPa 0,0 l/m 2 min 0 min 800 W/m 10,5 km/h (2 Bft)
14.05.2015 12:16 14,8 C 13,3 C 58 % 1014,0 hPa 0,0 l/m 2 min 0 min 827 W/m 14,6 km/h (3 Bft)
14.05.2015 12:18 14,9 C 13,3 C 57 % 1013,9 hPa 0,0 l/m 2 min 0 min 830 W/m 10,5 km/h (2 Bft)
14.05.2015 12:20 15,0 C 13,3 C 58 % 1013,9 hPa 0,0 l/m 2 min 0 min 829 W/m 16,7 km/h (3 Bft)
14.05.2015 12:22 15,1 C 13,3 C 56 % 1013,8 hPa 0,0 l/m 2 min 0 min 799 W/m 10,5 km/h (2 Bft)
14.05.2015 12:24 15,2 C 13,9 C 57 % 1013,8 hPa 0,0 l/m 2 min 0 min 801 W/m 10,5 km/h (2 Bft)
14.05.2015 12:26 15,4 C 13,9 C 60 % 1013,9 hPa 0,0 l/m 2 min 0 min 817 W/m 10,5 km/h (2 Bft)
14.05.2015 12:28 15,6 C 13,9 C 59 % 1013,9 hPa 0,0 l/m 2 min 0 min 832 W/m 8,4 km/h (2 Bft)
14.05.2015 12:30 15,9 C 14,4 C 60 % 1013,9 hPa 0,0 l/m 2 min 0 min 800 W/m 18,8 km/h (3 Bft)
14.05.2015 12:32 16,1 C 14,4 C 57 % 1013,9 hPa 0,0 l/m 2 min 0 min 792 W/m 14,6 km/h (3 Bft)
14.05.2015 12:34 16,3 C 15,0 C 56 % 1013,8 hPa 0,0 l/m 2 min 0 min 822 W/m 16,7 km/h (3 Bft)
14.05.2015 12:36 16,4 C 15,6 C 55 % 1013,8 hPa 0,0 l/m 2 min 0 min 833 W/m 16,7 km/h (3 Bft)
14.05.2015 12:38 16,4 C 16,1 C 55 % 1013,9 hPa 0,0 l/m 2 min 0 min 816 W/m 14,6 km/h (3 Bft)
14.05.2015 12:40 16,4 C 16,7 C 54 % 1013,8 hPa 0,0 l/m 2 min 0 min 830 W/m 16,7 km/h (3 Bft)
14.05.2015 12:42 16,4 C 16,7 C 54 % 1013,7 hPa 0,0 l/m 2 min 0 min 822 W/m 12,6 km/h (3 Bft)
14.05.2015 12:44 16,4 C 16,1 C 54 % 1013,7 hPa 0,0 l/m 2 min 0 min 806 W/m 12,6 km/h (3 Bft)
14.05.2015 12:46 16,4 C 15,6 C 55 % 1013,7 hPa 0,0 l/m 2 min 0 min 832 W/m 8,4 km/h (2 Bft)
14.05.2015 12:48 16,5 C 15,6 C 55 % 1013,6 hPa 0,0 l/m 2 min 0 min 850 W/m 8,4 km/h (2 Bft)
14.05.2015 12:50 16,6 C 15,0 C 54 % 1013,5 hPa 0,0 l/m 2 min 0 min 855 W/m 18,8 km/h (3 Bft)
14.05.2015 12:52 16,5 C 15,0 C 53 % 1013,6 hPa 0,0 l/m 2 min 0 min 856 W/m 16,7 km/h (3 Bft)
14.05.2015 12:54 16,4 C 15,6 C 54 % 1013,6 hPa 0,0 l/m 2 min 0 min 842 W/m 18,8 km/h (3 Bft)
14.05.2015 12:56 16,3 C 15,6 C 53 % 1013,6 hPa 0,0 l/m 2 min 0 min 865 W/m 14,6 km/h (3 Bft)
14.05.2015 12:58 16,2 C 16,1 C 55 % 1013,4 hPa 0,0 l/m 2 min 0 min 873 W/m 12,6 km/h (3 Bft)
14.05.2015 13:00 16,3 C 17,8 C 56 % 1013,4 hPa 0,0 l/m 2 min 0 min 902 W/m 12,6 km/h (3 Bft)
14.05.2015 13:02 16,4 C 17,8 C 55 % 1013,4 hPa 0,0 l/m 2 min 0 min 886 W/m 14,6 km/h (3 Bft)
14.05.2015 13:04 16,3 C 16,7 C 53 % 1013,5 hPa 0,0 l/m 2 min 0 min 792 W/m 20,9 km/h (4 Bft)
14.05.2015 13:06 16,2 C 17,2 C 54 % 1013,4 hPa 0,0 l/m 2 min 0 min 767 W/m 8,4 km/h (2 Bft)
14.05.2015 13:08 16,3 C 18,3 C 54 % 1013,3 hPa 0,0 l/m 2 min 0 min 880 W/m 10,5 km/h (2 Bft)
14.05.2015 13:10 16,4 C 20,0 C 54 % 1013,2 hPa 0,0 l/m 2 min 0 min 901 W/m 18,8 km/h (3 Bft)
14.05.2015 13:12 16,5 C 20,0 C 54 % 1013,2 hPa 0,0 l/m 2 min 0 min 898 W/m 18,8 km/h (3 Bft)
14.05.2015 13:14 16,6 C 18,9 C 53 % 1013,2 hPa 0,0 l/m 2 min 0 min 786 W/m 14,6 km/h (3 Bft)
14.05.2015 13:16 16,6 C 18,9 C 53 % 1013,1 hPa 0,0 l/m 2 min 0 min 579 W/m 8,4 km/h (2 Bft)
14.05.2015 13:18 16,7 C 17,8 C 54 % 1013,1 hPa 0,0 l/m 2 min 0 min 718 W/m 10,5 km/h (2 Bft)
14.05.2015 13:20 16,8 C 17,2 C 53 % 1013,1 hPa 0,0 l/m 2 min 0 min 491 W/m 8,4 km/h (2 Bft)
14.05.2015 13:22 16,8 C 16,7 C 53 % 1013,1 hPa 0,0 l/m 2 min 0 min 682 W/m 14,6 km/h (3 Bft)
14.05.2015 13:24 16,8 C 16,1 C 53 % 1013,1 hPa 0,0 l/m 2 min 0 min 782 W/m 14,6 km/h (3 Bft)
14.05.2015 13:26 16,8 C 16,7 C 53 % 1013,0 hPa 0,0 l/m 2 min 0 min 826 W/m 14,6 km/h (3 Bft)
14.05.2015 13:28 16,8 C 17,8 C 53 % 1013,0 hPa 0,0 l/m 2 min 0 min 901 W/m 12,6 km/h (3 Bft)
14.05.2015 13:30 16,9 C 18,9 C 54 % 1012,8 hPa 0,0 l/m 2 min 0 min 968 W/m 12,6 km/h (3 Bft)
14.05.2015 13:32 17,1 C 18,9 C 53 % 1012,8 hPa 0,0 l/m 2 min 0 min 983 W/m 14,6 km/h (3 Bft)
14.05.2015 13:34 17,2 C 18,3 C 52 % 1012,8 hPa 0,0 l/m 2 min 0 min 951 W/m 6,3 km/h (2 Bft)
14.05.2015 13:36 17,4 C 17,8 C 51 % 1012,8 hPa 0,0 l/m 2 min 0 min 846 W/m 16,7 km/h (3 Bft)
14.05.2015 13:38 17,4 C 16,7 C 52 % 1012,8 hPa 0,0 l/m 2 min 0 min 700 W/m 12,6 km/h (3 Bft)
14.05.2015 13:40 17,5 C 16,1 C 51 % 1012,8 hPa 0,0 l/m 2 min 0 min 650 W/m 16,7 km/h (3 Bft)
14.05.2015 13:42 17,5 C 15,6 C 52 % 1012,7 hPa 0,0 l/m 2 min 0 min 613 W/m 20,9 km/h (4 Bft)
14.05.2015 13:44 17,4 C 15,6 C 50 % 1012,7 hPa 0,0 l/m 2 min 0 min 832 W/m 18,8 km/h (3 Bft)
14.05.2015 13:46 17,4 C 16,1 C 49 % 1012,6 hPa 0,0 l/m 2 min 0 min 952 W/m 16,7 km/h (3 Bft)
14.05.2015 13:48 17,4 C 15,6 C 49 % 1012,6 hPa 0,0 l/m 2 min 0 min 898 W/m 16,7 km/h (3 Bft)
14.05.2015 13:50 17,4 C 15,6 C 50 % 1012,6 hPa 0,0 l/m 2 min 0 min 596 W/m 14,6 km/h (3 Bft)
14.05.2015 13:52 17,4 C 15,6 C 50 % 1012,7 hPa 0,0 l/m 2 min 0 min 494 W/m 16,7 km/h (3 Bft)
14.05.2015 13:54 17,3 C 15,6 C 49 % 1012,7 hPa 0,0 l/m 0 min 0 min 317 W/m 14,6 km/h (3 Bft)
14.05.2015 13:56 17,2 C 15,0 C 48 % 1012,6 hPa 0,0 l/m 0 min 0 min 330 W/m 12,6 km/h (3 Bft)
14.05.2015 13:58 17,2 C 15,6 C 51 % 1012,5 hPa 0,0 l/m 2 min 0 min 603 W/m 10,5 km/h (2 Bft)
14.05.2015 14:00 17,2 C 15,6 C 50 % 1012,6 hPa 0,0 l/m 2 min 0 min 780 W/m 6,3 km/h (2 Bft)
14.05.2015 14:02 17,3 C 16,1 C 50 % 1012,6 hPa 0,0 l/m 2 min 0 min 856 W/m 12,6 km/h (3 Bft)
14.05.2015 14:04 17,3 C 16,1 C 50 % 1012,6 hPa 0,0 l/m 2 min 0 min 1012 W/m 8,4 km/h (2 Bft)
14.05.2015 14:06 17,4 C 16,7 C 50 % 1012,5 hPa 0,0 l/m 2 min 0 min 980 W/m 16,7 km/h (3 Bft)
14.05.2015 14:08 17,6 C 16,7 C 49 % 1012,5 hPa 0,0 l/m 2 min 0 min 1019 W/m 12,6 km/h (3 Bft)
14.05.2015 14:10 17,7 C 16,7 C 48 % 1012,4 hPa 0,0 l/m 2 min 0 min 942 W/m 14,6 km/h (3 Bft)
14.05.2015 14:12 17,8 C 16,7 C 48 % 1012,4 hPa 0,0 l/m 2 min 0 min 822 W/m 23,0 km/h (4 Bft)
14.05.2015 14:14 17,9 C 16,7 C 47 % 1012,4 hPa 0,0 l/m 2 min 0 min 868 W/m 14,6 km/h (3 Bft)
14.05.2015 14:16 18,0 C 16,7 C 47 % 1012,3 hPa 0,0 l/m 2 min 0 min 947 W/m 12,6 km/h (3 Bft)
14.05.2015 14:18 18,1 C 16,7 C 47 % 1012,3 hPa 0,0 l/m 2 min 0 min 884 W/m 12,6 km/h (3 Bft)
14.05.2015 14:20 18,2 C 16,7 C 47 % 1012,3 hPa 0,0 l/m 2 min 0 min 862 W/m 18,8 km/h (3 Bft)
14.05.2015 14:22 18,3 C 16,7 C 47 % 1012,3 hPa 0,0 l/m 2 min 0 min 829 W/m 18,8 km/h (3 Bft)
14.05.2015 14:24 18,3 C 16,7 C 47 % 1012,2 hPa 0,0 l/m 2 min 0 min 807 W/m 14,6 km/h (3 Bft)
14.05.2015 14:26 18,3 C 16,7 C 48 % 1012,2 hPa 0,0 l/m 2 min 0 min 860 W/m 16,7 km/h (3 Bft)
14.05.2015 14:28 18,3 C 16,7 C 47 % 1012,2 hPa 0,0 l/m 2 min 0 min 878 W/m 20,9 km/h (4 Bft)
14.05.2015 14:30 18,3 C 16,7 C 47 % 1012,2 hPa 0,0 l/m 2 min 0 min 860 W/m 18,8 km/h (3 Bft)
14.05.2015 14:32 18,3 C 16,7 C 46 % 1012,2 hPa 0,0 l/m 2 min 0 min 785 W/m 12,6 km/h (3 Bft)
14.05.2015 14:34 18,3 C 16,7 C 47 % 1012,1 hPa 0,0 l/m 2 min 0 min 805 W/m 12,6 km/h (3 Bft)
14.05.2015 14:36 18,3 C 16,1 C 47 % 1012,1 hPa 0,0 l/m 2 min 0 min 797 W/m 6,3 km/h (2 Bft)
14.05.2015 14:38 18,4 C 16,7 C 48 % 1012,1 hPa 0,0 l/m 2 min 0 min 853 W/m 8,4 km/h (2 Bft)
14.05.2015 14:40 18,5 C 16,7 C 50 % 1012,1 hPa 0,0 l/m 2 min 0 min 837 W/m 6,3 km/h (2 Bft)
14.05.2015 14:42 18,6 C 16,7 C 48 % 1012,1 hPa 0,0 l/m 2 min 0 min 785 W/m 18,8 km/h (3 Bft)
14.05.2015 14:44 18,6 C 16,1 C 47 % 1012,1 hPa 0,0 l/m 2 min 0 min 775 W/m 18,8 km/h (3 Bft)
14.05.2015 14:46 18,7 C 16,7 C 48 % 1012,0 hPa 0,0 l/m 2 min 0 min 858 W/m 4,2 km/h (1 Bft)
14.05.2015 14:48 18,7 C 16,7 C 47 % 1012,0 hPa 0,0 l/m 2 min 0 min 921 W/m 6,3 km/h (2 Bft)
14.05.2015 14:50 18,8 C 16,7 C 47 % 1012,0 hPa 0,0 l/m 2 min 0 min 919 W/m 8,4 km/h (2 Bft)
14.05.2015 14:52 18,9 C 16,7 C 48 % 1011,9 hPa 0,0 l/m 2 min 0 min 906 W/m 14,6 km/h (3 Bft)
14.05.2015 14:54 19,0 C 16,7 C 47 % 1012,0 hPa 0,0 l/m 2 min 0 min 889 W/m 23,0 km/h (4 Bft)
14.05.2015 14:56 19,1 C 16,7 C 48 % 1011,7 hPa 0,0 l/m 2 min 0 min 873 W/m 14,6 km/h (3 Bft)
14.05.2015 14:58 19,2 C 16,7 C 47 % 1011,8 hPa 0,0 l/m 2 min 0 min 856 W/m 12,6 km/h (3 Bft)
14.05.2015 15:00 19,2 C 16,7 C 48 % 1011,8 hPa 0,0 l/m 2 min 0 min 843 W/m 14,6 km/h (3 Bft)
14.05.2015 15:02 19,3 C 16,7 C 46 % 1011,8 hPa 0,0 l/m 2 min 0 min 837 W/m 14,6 km/h (3 Bft)
14.05.2015 15:04 19,3 C 16,7 C 47 % 1011,6 hPa 0,0 l/m 2 min 0 min 835 W/m 12,6 km/h (3 Bft)
14.05.2015 15:06 19,4 C 16,1 C 47 % 1011,6 hPa 0,0 l/m 2 min 0 min 829 W/m 16,7 km/h (3 Bft)
14.05.2015 15:08 19,5 C 16,1 C 46 % 1011,6 hPa 0,0 l/m 2 min 0 min 829 W/m 16,7 km/h (3 Bft)
14.05.2015 15:10 19,6 C 16,7 C 48 % 1011,5 hPa 0,0 l/m 2 min 0 min 828 W/m 10,5 km/h (2 Bft)
14.05.2015 15:12 19,6 C 16,7 C 47 % 1011,5 hPa 0,0 l/m 2 min 0 min 831 W/m 18,8 km/h (3 Bft)
14.05.2015 15:14 19,7 C 16,7 C 46 % 1011,5 hPa 0,0 l/m 2 min 0 min 824 W/m 20,9 km/h (4 Bft)
14.05.2015 15:16 19,8 C 16,7 C 47 % 1011,5 hPa 0,0 l/m 2 min 0 min 825 W/m 18,8 km/h (3 Bft)
14.05.2015 15:18 19,9 C 16,7 C 45 % 1011,5 hPa 0,0 l/m 2 min 0 min 835 W/m 10,5 km/h (2 Bft)
14.05.2015 15:20 20,0 C 16,7 C 46 % 1011,4 hPa 0,0 l/m 2 min 0 min 821 W/m 18,8 km/h (3 Bft)
14.05.2015 15:22 20,1 C 16,7 C 43 % 1011,3 hPa 0,0 l/m 2 min 0 min 793 W/m 18,8 km/h (3 Bft)
14.05.2015 15:24 20,1 C 16,7 C 43 % 1011,2 hPa 0,0 l/m 2 min 0 min 788 W/m 12,6 km/h (3 Bft)
14.05.2015 15:26 20,2 C 16,7 C 44 % 1011,1 hPa 0,0 l/m 2 min 0 min 790 W/m 18,8 km/h (3 Bft)
14.05.2015 15:28 20,2 C 16,7 C 43 % 1011,1 hPa 0,0 l/m 2 min 0 min 788 W/m 16,7 km/h (3 Bft)
14.05.2015 15:30 20,2 C 16,7 C 43 % 1011,0 hPa 0,0 l/m 2 min 0 min 748 W/m 16,7 km/h (3 Bft)
14.05.2015 15:32 20,2 C 16,7 C 44 % 1010,9 hPa 0,0 l/m 2 min 0 min 679 W/m 10,5 km/h (2 Bft)
14.05.2015 15:34 20,1 C 16,7 C 44 % 1010,9 hPa 0,0 l/m 2 min 0 min 762 W/m 20,9 km/h (4 Bft)
14.05.2015 15:36 20,1 C 16,7 C 45 % 1010,8 hPa 0,0 l/m 2 min 0 min 802 W/m 14,6 km/h (3 Bft)
14.05.2015 15:38 20,1 C 16,7 C 45 % 1010,9 hPa 0,0 l/m 2 min 0 min 866 W/m 14,6 km/h (3 Bft)
14.05.2015 15:40 20,1 C 17,2 C 45 % 1010,9 hPa 0,0 l/m 2 min 0 min 782 W/m 16,7 km/h (3 Bft)
14.05.2015 15:42 20,1 C 16,7 C 43 % 1010,9 hPa 0,0 l/m 2 min 0 min 658 W/m 14,6 km/h (3 Bft)
14.05.2015 15:44 20,0 C 16,7 C 44 % 1011,0 hPa 0,0 l/m 2 min 0 min 598 W/m 20,9 km/h (4 Bft)
14.05.2015 15:46 19,9 C 16,7 C 44 % 1010,8 hPa 0,0 l/m 2 min 0 min 629 W/m 12,6 km/h (3 Bft)
14.05.2015 15:48 19,8 C 16,7 C 46 % 1010,9 hPa 0,0 l/m 2 min 0 min 695 W/m 10,5 km/h (2 Bft)
14.05.2015 15:50 19,7 C 16,7 C 44 % 1010,9 hPa 0,0 l/m 2 min 0 min 675 W/m 12,6 km/h (3 Bft)
14.05.2015 15:52 19,7 C 16,7 C 42 % 1010,8 hPa 0,0 l/m 2 min 0 min 560 W/m 16,7 km/h (3 Bft)
14.05.2015 15:54 19,6 C 16,7 C 44 % 1010,8 hPa 0,0 l/m 2 min 0 min 513 W/m 10,5 km/h (2 Bft)
14.05.2015 15:56 19,6 C 16,7 C 46 % 1010,8 hPa 0,0 l/m 2 min 0 min 458 W/m 8,4 km/h (2 Bft)
14.05.2015 15:58 19,6 C 16,7 C 45 % 1010,7 hPa 0,0 l/m 2 min 0 min 362 W/m 14,6 km/h (3 Bft)
14.05.2015 16:00 19,6 C 16,7 C 46 % 1010,7 hPa 0,0 l/m 0 min 0 min 270 W/m 10,5 km/h (2 Bft)
14.05.2015 16:02 19,6 C 16,7 C 45 % 1010,7 hPa 0,0 l/m 0 min 0 min 264 W/m 16,7 km/h (3 Bft)
14.05.2015 16:04 19,6 C 16,7 C 45 % 1010,6 hPa 0,0 l/m 0 min 0 min 265 W/m 14,6 km/h (3 Bft)
14.05.2015 16:06 19,5 C 16,7 C 46 % 1010,6 hPa 0,0 l/m 0 min 0 min 264 W/m 12,6 km/h (3 Bft)
14.05.2015 16:08 19,4 C 16,1 C 45 % 1010,6 hPa 0,0 l/m 0 min 0 min 266 W/m 12,6 km/h (3 Bft)
14.05.2015 16:10 19,3 C 16,7 C 45 % 1010,5 hPa 0,0 l/m 0 min 0 min 280 W/m 12,6 km/h (3 Bft)
14.05.2015 16:12 19,2 C 16,7 C 46 % 1010,5 hPa 0,0 l/m 0 min 0 min 330 W/m 18,8 km/h (3 Bft)
14.05.2015 16:14 19,1 C 16,7 C 45 % 1010,4 hPa 0,0 l/m 2 min 0 min 419 W/m 20,9 km/h (4 Bft)
14.05.2015 16:16 19,1 C 16,7 C 44 % 1010,4 hPa 0,0 l/m 2 min 0 min 592 W/m 27,2 km/h (4 Bft)
14.05.2015 16:18 19,0 C 17,2 C 45 % 1010,4 hPa 0,0 l/m 2 min 0 min 615 W/m 16,7 km/h (3 Bft)
14.05.2015 16:20 19,1 C 17,2 C 45 % 1010,4 hPa 0,0 l/m 2 min 0 min 662 W/m 16,7 km/h (3 Bft)
14.05.2015 16:22 19,1 C 17,2 C 45 % 1010,3 hPa 0,0 l/m 2 min 0 min 726 W/m 16,7 km/h (3 Bft)
14.05.2015 16:24 19,1 C 17,2 C 45 % 1010,3 hPa 0,0 l/m 2 min 0 min 653 W/m 16,7 km/h (3 Bft)
14.05.2015 16:26 19,1 C 17,2 C 46 % 1010,2 hPa 0,0 l/m 2 min 0 min 666 W/m 14,6 km/h (3 Bft)
14.05.2015 16:28 19,2 C 17,2 C 45 % 1010,2 hPa 0,0 l/m 2 min 0 min 626 W/m 10,5 km/h (2 Bft)
14.05.2015 16:30 19,2 C 17,2 C 45 % 1010,1 hPa 0,0 l/m 2 min 0 min 564 W/m 18,8 km/h (3 Bft)
14.05.2015 16:32 19,2 C 17,2 C 44 % 1010,1 hPa 0,0 l/m 2 min 0 min 404 W/m 18,8 km/h (3 Bft)
14.05.2015 16:34 19,2 C 16,7 C 44 % 1010,1 hPa 0,0 l/m 2 min 0 min 434 W/m 23,0 km/h (4 Bft)
14.05.2015 16:36 19,2 C 16,7 C 43 % 1010,2 hPa 0,0 l/m 2 min 0 min 373 W/m 20,9 km/h (4 Bft)
14.05.2015 16:38 19,2 C 16,7 C 44 % 1010,2 hPa 0,0 l/m 2 min 0 min 501 W/m 16,7 km/h (3 Bft)
14.05.2015 16:40 19,3 C 16,7 C 42 % 1010,1 hPa 0,0 l/m 2 min 0 min 585 W/m 12,6 km/h (3 Bft)
14.05.2015 16:42 19,2 C 16,7 C 43 % 1009,9 hPa 0,0 l/m 2 min 0 min 509 W/m 14,6 km/h (3 Bft)
14.05.2015 16:44 19,2 C 16,7 C 44 % 1009,8 hPa 0,0 l/m 2 min 0 min 397 W/m 16,7 km/h (3 Bft)
14.05.2015 16:46 19,2 C 16,7 C 43 % 1009,8 hPa 0,0 l/m 2 min 0 min 397 W/m 18,8 km/h (3 Bft)
14.05.2015 16:48 19,3 C 17,2 C 45 % 1009,8 hPa 0,0 l/m 2 min 0 min 674 W/m 12,6 km/h (3 Bft)
14.05.2015 16:50 19,4 C 17,2 C 45 % 1009,7 hPa 0,0 l/m 2 min 0 min 687 W/m 10,5 km/h (2 Bft)
14.05.2015 16:52 19,5 C 17,2 C 45 % 1009,7 hPa 0,0 l/m 2 min 0 min 712 W/m 25,1 km/h (4 Bft)
14.05.2015 16:54 19,6 C 17,2 C 44 % 1009,7 hPa 0,0 l/m 2 min 0 min 601 W/m 23,0 km/h (4 Bft)
14.05.2015 16:56 19,5 C 17,2 C 44 % 1009,6 hPa 0,0 l/m 2 min 0 min 560 W/m 14,6 km/h (3 Bft)
14.05.2015 16:58 19,4 C 16,7 C 44 % 1009,7 hPa 0,0 l/m 2 min 0 min 606 W/m 18,8 km/h (3 Bft)
14.05.2015 17:00 19,4 C 16,7 C 44 % 1009,5 hPa 0,0 l/m 2 min 0 min 519 W/m 20,9 km/h (4 Bft)
14.05.2015 17:02 19,3 C 16,7 C 45 % 1009,5 hPa 0,0 l/m 2 min 0 min 467 W/m 16,7 km/h (3 Bft)
14.05.2015 17:04 19,3 C 16,7 C 47 % 1009,5 hPa 0,0 l/m 2 min 0 min 482 W/m 16,7 km/h (3 Bft)
14.05.2015 17:06 19,3 C 17,2 C 46 % 1009,5 hPa 0,0 l/m 2 min 0 min 550 W/m 16,7 km/h (3 Bft)
14.05.2015 17:08 19,4 C 17,2 C 45 % 1009,5 hPa 0,0 l/m 2 min 0 min 551 W/m 18,8 km/h (3 Bft)
14.05.2015 17:10 19,3 C 17,2 C 44 % 1009,6 hPa 0,0 l/m 2 min 0 min 549 W/m 14,6 km/h (3 Bft)
14.05.2015 17:12 19,3 C 17,2 C 46 % 1009,5 hPa 0,0 l/m 2 min 0 min 561 W/m 10,5 km/h (2 Bft)
14.05.2015 17:14 19,3 C 17,2 C 45 % 1009,4 hPa 0,0 l/m 2 min 0 min 605 W/m 14,6 km/h (3 Bft)
14.05.2015 17:16 19,3 C 17,2 C 46 % 1009,4 hPa 0,0 l/m 2 min 0 min 552 W/m 18,8 km/h (3 Bft)
14.05.2015 17:18 19,3 C 17,2 C 44 % 1009,4 hPa 0,0 l/m 2 min 0 min 438 W/m 16,7 km/h (3 Bft)
14.05.2015 17:20 19,3 C 17,2 C 45 % 1009,3 hPa 0,0 l/m 2 min 0 min 382 W/m 14,6 km/h (3 Bft)
14.05.2015 17:22 19,3 C 16,7 C 46 % 1009,3 hPa 0,0 l/m 2 min 0 min 376 W/m 23,0 km/h (4 Bft)
14.05.2015 17:24 19,3 C 17,2 C 45 % 1009,3 hPa 0,0 l/m 2 min 0 min 572 W/m 18,8 km/h (3 Bft)
14.05.2015 17:26 19,3 C 17,2 C 45 % 1009,3 hPa 0,0 l/m 2 min 0 min 541 W/m 14,6 km/h (3 Bft)
14.05.2015 17:28 19,3 C 17,2 C 46 % 1009,4 hPa 0,0 l/m 2 min 0 min 507 W/m 14,6 km/h (3 Bft)
14.05.2015 17:30 19,3 C 17,2 C 47 % 1009,3 hPa 0,0 l/m 2 min 0 min 394 W/m 20,9 km/h (4 Bft)
14.05.2015 17:32 19,4 C 17,2 C 46 % 1009,2 hPa 0,0 l/m 2 min 0 min 410 W/m 20,9 km/h (4 Bft)
14.05.2015 17:34 19,4 C 16,7 C 47 % 1009,2 hPa 0,0 l/m 2 min 0 min 502 W/m 18,8 km/h (3 Bft)
14.05.2015 17:36 19,3 C 16,7 C 45 % 1009,3 hPa 0,0 l/m 2 min 0 min 513 W/m 20,9 km/h (4 Bft)
14.05.2015 17:38 19,3 C 16,7 C 45 % 1009,2 hPa 0,0 l/m 2 min 0 min 439 W/m 14,6 km/h (3 Bft)
14.05.2015 17:40 19,2 C 16,7 C 46 % 1009,3 hPa 0,0 l/m 2 min 0 min 436 W/m 23,0 km/h (4 Bft)
14.05.2015 17:42 19,2 C 16,7 C 47 % 1009,1 hPa 0,0 l/m 2 min 0 min 336 W/m 14,6 km/h (3 Bft)
14.05.2015 17:44 19,2 C 16,7 C 46 % 1009,3 hPa 0,0 l/m 2 min 0 min 439 W/m 18,8 km/h (3 Bft)
14.05.2015 17:46 19,2 C 16,7 C 47 % 1009,2 hPa 0,0 l/m 2 min 0 min 482 W/m 16,7 km/h (3 Bft)
14.05.2015 17:48 19,2 C 16,7 C 47 % 1009,3 hPa 0,0 l/m 2 min 0 min 538 W/m 20,9 km/h (4 Bft)
14.05.2015 17:50 19,2 C 16,7 C 47 % 1009,3 hPa 0,0 l/m 2 min 0 min 524 W/m 23,0 km/h (4 Bft)
14.05.2015 17:52 19,1 C 16,7 C 47 % 1009,2 hPa 0,0 l/m 2 min 0 min 484 W/m 16,7 km/h (3 Bft)
14.05.2015 17:54 19,1 C 16,7 C 47 % 1009,3 hPa 0,0 l/m 2 min 0 min 373 W/m 16,7 km/h (3 Bft)
14.05.2015 17:56 19,1 C 16,7 C 47 % 1009,3 hPa 0,0 l/m 2 min 0 min 288 W/m 14,6 km/h (3 Bft)
14.05.2015 17:58 19,0 C 16,1 C 47 % 1009,3 hPa 0,0 l/m 2 min 0 min 308 W/m 14,6 km/h (3 Bft)
14.05.2015 18:00 19,0 C 16,7 C 48 % 1009,3 hPa 0,0 l/m 2 min 0 min 285 W/m 18,8 km/h (3 Bft)
14.05.2015 18:02 18,9 C 16,7 C 47 % 1009,3 hPa 0,0 l/m 2 min 0 min 271 W/m 16,7 km/h (3 Bft)
14.05.2015 18:06 18,9 C 16,7 C 48 % 1009,4 hPa 0,0 l/m 2 min 0 min 254 W/m 16,7 km/h (3 Bft)
14.05.2015 18:08 18,9 C 16,7 C 48 % 1009,4 hPa 0,0 l/m 2 min 0 min 266 W/m 14,6 km/h (3 Bft)
14.05.2015 18:10 18,9 C 16,7 C 47 % 1009,4 hPa 0,0 l/m 2 min 0 min 250 W/m 12,6 km/h (3 Bft)
14.05.2015 18:12 18,8 C 16,7 C 48 % 1009,4 hPa 0,0 l/m 2 min 0 min 236 W/m 10,5 km/h (2 Bft)
14.05.2015 18:14 18,8 C 16,7 C 48 % 1009,5 hPa 0,0 l/m 0 min 0 min 215 W/m 12,6 km/h (3 Bft)
14.05.2015 18:16 18,8 C 16,1 C 48 % 1009,5 hPa 0,0 l/m 0 min 0 min 201 W/m 14,6 km/h (3 Bft)
14.05.2015 18:18 18,7 C 16,1 C 48 % 1009,4 hPa 0,0 l/m 0 min 0 min 193 W/m 18,8 km/h (3 Bft)
14.05.2015 18:20 18,7 C 16,1 C 48 % 1009,4 hPa 0,0 l/m 0 min 0 min 184 W/m 10,5 km/h (2 Bft)
14.05.2015 18:22 18,7 C 16,1 C 49 % 1009,4 hPa 0,0 l/m 0 min 0 min 175 W/m 18,8 km/h (3 Bft)
14.05.2015 18:24 18,6 C 16,1 C 49 % 1009,3 hPa 0,0 l/m 0 min 0 min 166 W/m 14,6 km/h (3 Bft)
14.05.2015 18:26 18,6 C 16,1 C 48 % 1009,3 hPa 0,0 l/m 0 min 0 min 160 W/m 20,9 km/h (4 Bft)
14.05.2015 18:28 18,4 C 16,1 C 49 % 1009,3 hPa 0,0 l/m 0 min 0 min 156 W/m 18,8 km/h (3 Bft)
14.05.2015 18:30 18,3 C 15,6 C 49 % 1009,4 hPa 0,0 l/m 0 min 0 min 151 W/m 14,6 km/h (3 Bft)
14.05.2015 18:32 18,3 C 15,6 C 49 % 1009,4 hPa 0,0 l/m 0 min 0 min 146 W/m 12,6 km/h (3 Bft)
14.05.2015 18:34 18,2 C 15,6 C 49 % 1009,4 hPa 0,0 l/m 0 min 0 min 140 W/m 18,8 km/h (3 Bft)
14.05.2015 18:36 18,2 C 15,6 C 49 % 1009,3 hPa 0,0 l/m 0 min 0 min 135 W/m 14,6 km/h (3 Bft)
14.05.2015 18:38 18,1 C 15,6 C 50 % 1009,3 hPa 0,0 l/m 0 min 0 min 128 W/m 14,6 km/h (3 Bft)
14.05.2015 18:40 18,1 C 15,6 C 50 % 1009,3 hPa 0,0 l/m 0 min 0 min 124 W/m 12,6 km/h (3 Bft)
14.05.2015 18:42 18,1 C 15,6 C 50 % 1009,5 hPa 0,0 l/m 0 min 0 min 120 W/m 14,6 km/h (3 Bft)
14.05.2015 18:44 18,1 C 15,6 C 50 % 1009,4 hPa 0,0 l/m 0 min 0 min 118 W/m 12,6 km/h (3 Bft)
14.05.2015 18:46 18,0 C 15,6 C 50 % 1009,4 hPa 0,0 l/m 0 min 0 min 115 W/m 16,7 km/h (3 Bft)
14.05.2015 18:48 17,9 C 15,6 C 50 % 1009,4 hPa 0,0 l/m 0 min 0 min 113 W/m 18,8 km/h (3 Bft)
14.05.2015 18:50 17,9 C 15,6 C 50 % 1009,4 hPa 0,0 l/m 0 min 0 min 111 W/m 16,7 km/h (3 Bft)
14.05.2015 18:52 17,9 C 15,6 C 51 % 1009,4 hPa 0,0 l/m 0 min 0 min 110 W/m 10,5 km/h (2 Bft)
14.05.2015 18:54 17,9 C 15,6 C 51 % 1009,4 hPa 0,0 l/m 0 min 0 min 108 W/m 16,7 km/h (3 Bft)
14.05.2015 18:56 17,8 C 15,6 C 51 % 1009,4 hPa 0,0 l/m 0 min 0 min 105 W/m 10,5 km/h (2 Bft)
14.05.2015 18:58 17,8 C 15,6 C 51 % 1009,4 hPa 0,0 l/m 0 min 0 min 104 W/m 12,6 km/h (3 Bft)
14.05.2015 19:00 17,8 C 15,6 C 51 % 1009,4 hPa 0,0 l/m 0 min 0 min 101 W/m 14,6 km/h (3 Bft)
14.05.2015 19:02 17,8 C 15,6 C 51 % 1009,4 hPa 0,0 l/m 0 min 0 min 99 W/m 14,6 km/h (3 Bft)
14.05.2015 19:04 17,8 C 15,0 C 51 % 1009,4 hPa 0,0 l/m 0 min 0 min 97 W/m 16,7 km/h (3 Bft)
14.05.2015 19:06 17,7 C 15,0 C 51 % 1009,4 hPa 0,0 l/m 0 min 0 min 94 W/m 14,6 km/h (3 Bft)
14.05.2015 19:08 17,7 C 15,0 C 51 % 1009,4 hPa 0,0 l/m 0 min 0 min 92 W/m 14,6 km/h (3 Bft)
14.05.2015 19:10 17,7 C 15,0 C 51 % 1009,4 hPa 0,0 l/m 0 min 0 min 90 W/m 10,5 km/h (2 Bft)
14.05.2015 19:12 17,7 C 15,0 C 51 % 1009,4 hPa 0,0 l/m 0 min 0 min 90 W/m 12,6 km/h (3 Bft)
14.05.2015 19:14 17,7 C 15,0 C 50 % 1009,4 hPa 0,0 l/m 0 min 0 min 91 W/m 14,6 km/h (3 Bft)
14.05.2015 19:16 17,6 C 15,0 C 50 % 1009,4 hPa 0,0 l/m 0 min 0 min 93 W/m 14,6 km/h (3 Bft)
14.05.2015 19:18 17,6 C 15,0 C 50 % 1009,4 hPa 0,0 l/m 0 min 0 min 93 W/m 16,7 km/h (3 Bft)
14.05.2015 19:20 17,6 C 15,0 C 51 % 1009,4 hPa 0,0 l/m 0 min 0 min 90 W/m 6,3 km/h (2 Bft)
14.05.2015 19:22 17,6 C 15,0 C 52 % 1009,4 hPa 0,0 l/m 0 min 0 min 85 W/m 6,3 km/h (2 Bft)
14.05.2015 19:24 17,6 C 15,0 C 51 % 1009,4 hPa 0,0 l/m 0 min 0 min 83 W/m 14,6 km/h (3 Bft)
14.05.2015 19:26 17,5 C 15,0 C 51 % 1009,4 hPa 0,0 l/m 0 min 0 min 78 W/m 14,6 km/h (3 Bft)
14.05.2015 19:28 17,5 C 15,0 C 51 % 1009,4 hPa 0,0 l/m 0 min 0 min 73 W/m 12,6 km/h (3 Bft)
14.05.2015 19:30 17,5 C 15,0 C 51 % 1009,4 hPa 0,0 l/m 0 min 0 min 69 W/m 10,5 km/h (2 Bft)
14.05.2015 19:32 17,4 C 15,0 C 51 % 1009,5 hPa 0,0 l/m 0 min 0 min 64 W/m 10,5 km/h (2 Bft)
14.05.2015 19:34 17,4 C 15,0 C 52 % 1009,5 hPa 0,0 l/m 0 min 0 min 56 W/m 14,6 km/h (3 Bft)
14.05.2015 19:36 17,4 C 15,0 C 52 % 1009,5 hPa 0,0 l/m 0 min 0 min 51 W/m 12,6 km/h (3 Bft)
14.05.2015 19:38 17,4 C 15,0 C 52 % 1009,5 hPa 0,0 l/m 0 min 0 min 48 W/m 10,5 km/h (2 Bft)
14.05.2015 19:40 17,4 C 15,0 C 52 % 1009,5 hPa 0,0 l/m 0 min 0 min 44 W/m 10,5 km/h (2 Bft)
14.05.2015 19:42 17,4 C 15,0 C 52 % 1009,5 hPa 0,0 l/m 0 min 0 min 40 W/m 14,6 km/h (3 Bft)
14.05.2015 19:44 17,3 C 14,4 C 52 % 1009,5 hPa 0,0 l/m 0 min 0 min 36 W/m 6,3 km/h (2 Bft)
14.05.2015 19:46 17,3 C 14,4 C 52 % 1009,5 hPa 0,0 l/m 0 min 0 min 32 W/m 14,6 km/h (3 Bft)
14.05.2015 19:48 17,3 C 14,4 C 52 % 1009,5 hPa 0,0 l/m 0 min 0 min 28 W/m 8,4 km/h (2 Bft)
14.05.2015 19:50 17,3 C 14,4 C 52 % 1009,5 hPa 0,0 l/m 0 min 0 min 26 W/m 8,4 km/h (2 Bft)
14.05.2015 19:52 17,3 C 14,4 C 52 % 1009,6 hPa 0,0 l/m 0 min 0 min 25 W/m 8,4 km/h (2 Bft)
14.05.2015 19:54 17,2 C 14,4 C 52 % 1009,6 hPa 0,0 l/m 0 min 0 min 23 W/m 6,3 km/h (2 Bft)
14.05.2015 19:56 17,2 C 14,4 C 52 % 1009,7 hPa 0,0 l/m 0 min 0 min 23 W/m 6,3 km/h (2 Bft)
14.05.2015 19:58 17,2 C 14,4 C 52 % 1009,7 hPa 0,0 l/m 0 min 0 min 23 W/m 6,3 km/h (2 Bft)
14.05.2015 20:00 17,2 C 14,4 C 52 % 1009,7 hPa 0,0 l/m 0 min 0 min 25 W/m 10,5 km/h (2 Bft)
14.05.2015 20:02 17,2 C 14,4 C 52 % 1009,7 hPa 0,0 l/m 0 min 0 min 26 W/m 12,6 km/h (3 Bft)
14.05.2015 20:04 17,1 C 14,4 C 52 % 1009,6 hPa 0,0 l/m 0 min 0 min 26 W/m 10,5 km/h (2 Bft)
14.05.2015 20:06 17,1 C 14,4 C 52 % 1009,7 hPa 0,0 l/m 0 min 0 min 24 W/m 6,3 km/h (2 Bft)
14.05.2015 20:08 17,1 C 14,4 C 52 % 1009,7 hPa 0,0 l/m 0 min 2 min 22 W/m 6,3 km/h (2 Bft)
14.05.2015 20:10 17,1 C 13,9 C 53 % 1009,8 hPa 0,0 l/m 0 min 0 min 20 W/m 4,2 km/h (1 Bft)
14.05.2015 20:12 17,1 C 13,9 C 53 % 1009,8 hPa 0,0 l/m 0 min 2 min 19 W/m 4,2 km/h (1 Bft)
14.05.2015 20:14 17,1 C 13,9 C 55 % 1009,8 hPa 0,0 l/m 0 min 2 min 18 W/m 6,3 km/h (2 Bft)
14.05.2015 20:16 17,0 C 13,3 C 54 % 1009,9 hPa 0,0 l/m 0 min 2 min 16 W/m 6,3 km/h (2 Bft)
14.05.2015 20:18 17,1 C 13,3 C 57 % 1009,9 hPa 0,0 l/m 0 min 2 min 14 W/m 4,2 km/h (1 Bft)
14.05.2015 20:20 17,0 C 12,8 C 58 % 1009,9 hPa 0,0 l/m 0 min 2 min 13 W/m 6,3 km/h (2 Bft)
14.05.2015 20:22 17,0 C 12,8 C 60 % 1009,9 hPa 0,0 l/m 0 min 2 min 12 W/m 4,2 km/h (1 Bft)
14.05.2015 20:24 17,0 C 12,8 C 60 % 1009,9 hPa 0,0 l/m 0 min 2 min 12 W/m 4,2 km/h (1 Bft)
14.05.2015 20:26 16,9 C 12,8 C 60 % 1009,9 hPa 0,0 l/m 0 min 2 min 11 W/m 6,3 km/h (2 Bft)
14.05.2015 20:28 16,9 C 12,2 C 59 % 1009,9 hPa 0,0 l/m 0 min 2 min 11 W/m 6,3 km/h (2 Bft)
14.05.2015 20:30 16,8 C 12,2 C 59 % 1010,0 hPa 0,0 l/m 0 min 2 min 11 W/m 4,2 km/h (1 Bft)
14.05.2015 20:32 16,8 C 12,2 C 59 % 1009,9 hPa 0,0 l/m 0 min 2 min 11 W/m 4,2 km/h (1 Bft)
14.05.2015 20:34 16,7 C 12,2 C 60 % 1009,9 hPa 0,0 l/m 0 min 2 min 11 W/m 6,3 km/h (2 Bft)
14.05.2015 20:36 16,7 C 12,2 C 60 % 1009,9 hPa 0,0 l/m 0 min 2 min 11 W/m 6,3 km/h (2 Bft)
14.05.2015 20:38 16,7 C 12,2 C 60 % 1009,9 hPa 0,0 l/m 0 min 2 min 11 W/m 6,3 km/h (2 Bft)
14.05.2015 20:40 16,6 C 12,2 C 61 % 1009,9 hPa 0,0 l/m 0 min 2 min 11 W/m 10,5 km/h (2 Bft)
14.05.2015 20:42 16,5 C 12,2 C 61 % 1010,0 hPa 0,2 l/m 0 min 2 min 11 W/m 10,5 km/h (2 Bft)
14.05.2015 20:44 16,4 C 12,2 C 62 % 1010,0 hPa 0,0 l/m 0 min 2 min 10 W/m 6,3 km/h (2 Bft)
14.05.2015 20:46 16,3 C 12,2 C 63 % 1010,0 hPa 0,0 l/m 0 min 2 min 9 W/m 6,3 km/h (2 Bft)
14.05.2015 20:48 16,3 C 12,2 C 63 % 1010,0 hPa 0,0 l/m 0 min 2 min 9 W/m 8,4 km/h (2 Bft)
14.05.2015 20:50 16,2 C 12,2 C 63 % 1010,0 hPa 0,0 l/m 0 min 2 min 7 W/m 6,3 km/h (2 Bft)
14.05.2015 20:52 16,2 C 12,2 C 65 % 1010,1 hPa 0,0 l/m 0 min 2 min 7 W/m 4,2 km/h (1 Bft)
14.05.2015 20:54 16,1 C 12,2 C 65 % 1010,1 hPa 0,0 l/m 0 min 2 min 7 W/m 4,2 km/h (1 Bft)
14.05.2015 20:56 16,0 C 12,2 C 65 % 1010,1 hPa 0,0 l/m 0 min 2 min 5 W/m 4,2 km/h (1 Bft)
14.05.2015 20:58 15,9 C 12,2 C 66 % 1010,1 hPa 0,0 l/m 0 min 0 min 5 W/m 6,3 km/h (2 Bft)
14.05.2015 21:00 15,9 C 12,2 C 66 % 1010,2 hPa 0,0 l/m 0 min 2 min 5 W/m 6,3 km/h (2 Bft)
14.05.2015 21:02 15,9 C 12,2 C 66 % 1010,1 hPa 0,0 l/m 0 min 0 min 5 W/m 6,3 km/h (2 Bft)
14.05.2015 21:04 15,8 C 12,2 C 67 % 1010,1 hPa 0,0 l/m 0 min 0 min 5 W/m 6,3 km/h (2 Bft)
14.05.2015 21:06 15,7 C 12,2 C 67 % 1010,1 hPa 0,0 l/m 0 min 0 min 5 W/m 8,4 km/h (2 Bft)
14.05.2015 21:08 15,7 C 12,2 C 68 % 1010,1 hPa 0,0 l/m 0 min 0 min 5 W/m 8,4 km/h (2 Bft)
14.05.2015 21:10 15,6 C 12,2 C 68 % 1010,1 hPa 0,0 l/m 0 min 0 min 5 W/m 8,4 km/h (2 Bft)
14.05.2015 21:12 15,5 C 12,2 C 69 % 1010,0 hPa 0,0 l/m 0 min 0 min 0 W/m 10,5 km/h (2 Bft)
14.05.2015 21:14 15,4 C 12,2 C 69 % 1010,1 hPa 0,0 l/m 0 min 0 min 0 W/m 10,5 km/h (2 Bft)
14.05.2015 21:16 15,4 C 12,2 C 69 % 1010,1 hPa 0,0 l/m 0 min 0 min 0 W/m 8,4 km/h (2 Bft)
14.05.2015 21:18 15,3 C 12,2 C 68 % 1010,1 hPa 0,0 l/m 0 min 0 min 0 W/m 12,6 km/h (3 Bft)
14.05.2015 21:20 15,2 C 12,2 C 68 % 1010,1 hPa 0,0 l/m 0 min 0 min 0 W/m 10,5 km/h (2 Bft)
14.05.2015 21:22 15,2 C 12,2 C 68 % 1010,0 hPa 0,0 l/m 0 min 0 min 0 W/m 12,6 km/h (3 Bft)
14.05.2015 21:24 15,1 C 12,2 C 69 % 1010,1 hPa 0,0 l/m 0 min 0 min 0 W/m 16,7 km/h (3 Bft)
14.05.2015 21:26 15,1 C 12,2 C 67 % 1010,1 hPa 0,0 l/m 0 min 0 min 0 W/m 16,7 km/h (3 Bft)
14.05.2015 21:28 15,0 C 12,2 C 68 % 1010,1 hPa 0,0 l/m 0 min 0 min 0 W/m 4,2 km/h (1 Bft)
14.05.2015 21:30 14,9 C 12,2 C 68 % 1010,2 hPa 0,0 l/m 0 min 0 min 0 W/m 6,3 km/h (2 Bft)
14.05.2015 21:32 14,9 C 12,2 C 69 % 1010,2 hPa 0,0 l/m 0 min 0 min 0 W/m 10,5 km/h (2 Bft)
14.05.2015 21:34 14,9 C 12,2 C 69 % 1010,1 hPa 0,0 l/m 0 min 0 min 0 W/m 10,5 km/h (2 Bft)
14.05.2015 21:36 14,9 C 12,2 C 69 % 1010,1 hPa 0,0 l/m 0 min 0 min 0 W/m 8,4 km/h (2 Bft)
14.05.2015 21:38 14,8 C 12,2 C 69 % 1010,2 hPa 0,0 l/m 0 min 0 min 0 W/m 6,3 km/h (2 Bft)
14.05.2015 21:40 14,8 C 12,2 C 69 % 1010,1 hPa 0,0 l/m 0 min 0 min 0 W/m 6,3 km/h (2 Bft)
14.05.2015 21:42 14,8 C 12,2 C 69 % 1010,1 hPa 0,0 l/m 0 min 0 min 0 W/m 6,3 km/h (2 Bft)
14.05.2015 21:44 14,8 C 12,2 C 69 % 1010,1 hPa 0,0 l/m 0 min 0 min 0 W/m 14,6 km/h (3 Bft)
14.05.2015 21:46 14,7 C 12,2 C 69 % 1010,2 hPa 0,0 l/m 0 min 0 min 0 W/m 14,6 km/h (3 Bft)
14.05.2015 21:48 14,7 C 12,2 C 69 % 1010,2 hPa 0,0 l/m 0 min 0 min 0 W/m 8,4 km/h (2 Bft)
14.05.2015 21:50 14,7 C 11,7 C 69 % 1010,1 hPa 0,0 l/m 0 min 0 min 0 W/m 12,6 km/h (3 Bft)
14.05.2015 21:52 14,6 C 12,2 C 69 % 1010,1 hPa 0,0 l/m 0 min 0 min 0 W/m 12,6 km/h (3 Bft)
14.05.2015 21:54 14,6 C 12,2 C 69 % 1010,2 hPa 0,0 l/m 0 min 0 min 0 W/m 8,4 km/h (2 Bft)
14.05.2015 21:56 14,6 C 12,2 C 69 % 1010,2 hPa 0,0 l/m 0 min 2 min 0 W/m 14,6 km/h (3 Bft)
14.05.2015 21:58 14,6 C 12,2 C 70 % 1010,1 hPa 0,0 l/m 0 min 2 min 0 W/m 8,4 km/h (2 Bft)
14.05.2015 22:00 14,5 C 11,7 C 69 % 1010,2 hPa 0,0 l/m 0 min 0 min 0 W/m 14,6 km/h (3 Bft)
14.05.2015 22:02 14,5 C 12,2 C 69 % 1010,1 hPa 0,0 l/m 0 min 0 min 0 W/m 8,4 km/h (2 Bft)
14.05.2015 22:04 14,5 C 12,2 C 69 % 1010,2 hPa 0,0 l/m 0 min 0 min 0 W/m 8,4 km/h (2 Bft)
14.05.2015 22:06 14,4 C 12,2 C 69 % 1010,1 hPa 0,0 l/m 0 min 0 min 0 W/m 6,3 km/h (2 Bft)
14.05.2015 22:08 14,4 C 12,2 C 68 % 1010,1 hPa 0,0 l/m 0 min 0 min 0 W/m 8,4 km/h (2 Bft)
14.05.2015 22:10 14,4 C 11,7 C 68 % 1010,1 hPa 0,0 l/m 0 min 0 min 0 W/m 14,6 km/h (3 Bft)
14.05.2015 22:12 14,3 C 11,7 C 67 % 1010,1 hPa 0,0 l/m 0 min 0 min 0 W/m 14,6 km/h (3 Bft)
14.05.2015 22:14 14,3 C 11,7 C 66 % 1010,1 hPa 0,0 l/m 0 min 0 min 0 W/m 6,3 km/h (2 Bft)
14.05.2015 22:16 14,3 C 11,7 C 66 % 1010,2 hPa 0,0 l/m 0 min 0 min 0 W/m 20,9 km/h (4 Bft)
14.05.2015 22:18 14,3 C 11,7 C 66 % 1010,1 hPa 0,0 l/m 0 min 0 min 0 W/m 10,5 km/h (2 Bft)
14.05.2015 22:20 14,3 C 11,7 C 66 % 1010,2 hPa 0,0 l/m 0 min 0 min 0 W/m 14,6 km/h (3 Bft)
14.05.2015 22:22 14,3 C 11,7 C 66 % 1010,2 hPa 0,0 l/m 0 min 0 min 0 W/m 10,5 km/h (2 Bft)
14.05.2015 22:24 14,2 C 11,7 C 66 % 1010,1 hPa 0,0 l/m 0 min 0 min 0 W/m 12,6 km/h (3 Bft)
14.05.2015 22:26 14,2 C 11,7 C 65 % 1010,1 hPa 0,0 l/m 0 min 0 min 0 W/m 10,5 km/h (2 Bft)
14.05.2015 22:28 14,2 C 11,7 C 66 % 1010,1 hPa 0,0 l/m 0 min 0 min 0 W/m 16,7 km/h (3 Bft)
14.05.2015 22:30 14,2 C 11,7 C 65 % 1010,1 hPa 0,0 l/m 0 min 0 min 0 W/m 12,6 km/h (3 Bft)
14.05.2015 22:32 14,2 C 11,7 C 65 % 1010,1 hPa 0,0 l/m 0 min 0 min 0 W/m 10,5 km/h (2 Bft)
14.05.2015 22:34 14,2 C 11,7 C 65 % 1010,1 hPa 0,0 l/m 0 min 0 min 0 W/m 12,6 km/h (3 Bft)
14.05.2015 22:36 14,2 C 11,7 C 65 % 1010,1 hPa 0,0 l/m 0 min 0 min 0 W/m 18,8 km/h (3 Bft)
14.05.2015 22:38 14,2 C 11,7 C 65 % 1010,1 hPa 0,0 l/m 0 min 0 min 0 W/m 16,7 km/h (3 Bft)
14.05.2015 22:40 14,2 C 11,7 C 66 % 1010,1 hPa 0,0 l/m 0 min 0 min 0 W/m 12,6 km/h (3 Bft)
14.05.2015 22:42 14,2 C 11,7 C 66 % 1010,1 hPa 0,0 l/m 0 min 0 min 0 W/m 16,7 km/h (3 Bft)
14.05.2015 22:44 14,2 C 11,7 C 66 % 1010,1 hPa 0,0 l/m 0 min 0 min 0 W/m 12,6 km/h (3 Bft)
14.05.2015 22:46 14,2 C 11,7 C 66 % 1010,1 hPa 0,0 l/m 0 min 0 min 0 W/m 10,5 km/h (2 Bft)
14.05.2015 22:48 14,2 C 11,7 C 66 % 1010,1 hPa 0,0 l/m 0 min 0 min 0 W/m 18,8 km/h (3 Bft)
14.05.2015 22:50 14,2 C 11,7 C 66 % 1010,1 hPa 0,0 l/m 0 min 0 min 0 W/m 18,8 km/h (3 Bft)
14.05.2015 22:52 14,1 C 11,7 C 66 % 1010,1 hPa 0,0 l/m 0 min 0 min 0 W/m 12,6 km/h (3 Bft)
14.05.2015 22:54 14,1 C 11,7 C 66 % 1010,2 hPa 0,0 l/m 0 min 0 min 0 W/m 10,5 km/h (2 Bft)
14.05.2015 22:56 14,0 C 11,7 C 67 % 1010,1 hPa 0,0 l/m 0 min 0 min 0 W/m 16,7 km/h (3 Bft)
14.05.2015 22:58 14,0 C 11,7 C 67 % 1010,2 hPa 0,0 l/m 0 min 0 min 0 W/m 16,7 km/h (3 Bft)
14.05.2015 23:00 13,9 C 11,7 C 67 % 1010,1 hPa 0,0 l/m 0 min 0 min 0 W/m 10,5 km/h (2 Bft)
14.05.2015 23:02 13,9 C 11,7 C 66 % 1010,1 hPa 0,0 l/m 0 min 0 min 0 W/m 10,5 km/h (2 Bft)
14.05.2015 23:04 13,9 C 11,7 C 66 % 1010,1 hPa 0,0 l/m 0 min 0 min 0 W/m 16,7 km/h (3 Bft)
14.05.2015 23:06 13,9 C 11,7 C 66 % 1010,1 hPa 0,0 l/m 0 min 0 min 0 W/m 16,7 km/h (3 Bft)
14.05.2015 23:08 13,8 C 11,7 C 66 % 1010,1 hPa 0,0 l/m 0 min 0 min 0 W/m 10,5 km/h (2 Bft)
14.05.2015 23:10 13,8 C 11,7 C 66 % 1010,1 hPa 0,0 l/m 0 min 0 min 0 W/m 14,6 km/h (3 Bft)
14.05.2015 23:12 13,8 C 11,7 C 66 % 1010,1 hPa 0,0 l/m 0 min 0 min 0 W/m 16,7 km/h (3 Bft)
14.05.2015 23:14 13,8 C 11,7 C 66 % 1010,1 hPa 0,0 l/m 0 min 0 min 0 W/m 12,6 km/h (3 Bft)
14.05.2015 23:16 13,8 C 11,7 C 66 % 1010,1 hPa 0,0 l/m 0 min 0 min 0 W/m 20,9 km/h (4 Bft)
14.05.2015 23:18 13,7 C 11,7 C 66 % 1010,0 hPa 0,0 l/m 0 min 0 min 0 W/m 10,5 km/h (2 Bft)
14.05.2015 23:20 13,7 C 11,7 C 66 % 1010,1 hPa 0,0 l/m 0 min 0 min 0 W/m 16,7 km/h (3 Bft)
14.05.2015 23:22 13,7 C 11,7 C 66 % 1010,0 hPa 0,0 l/m 0 min 0 min 0 W/m 14,6 km/h (3 Bft)
14.05.2015 23:24 13,7 C 11,7 C 66 % 1010,1 hPa 0,0 l/m 0 min 0 min 0 W/m 14,6 km/h (3 Bft)
14.05.2015 23:26 13,7 C 11,7 C 66 % 1010,1 hPa 0,0 l/m 0 min 0 min 0 W/m 16,7 km/h (3 Bft)
14.05.2015 23:28 13,6 C 11,7 C 66 % 1010,2 hPa 0,0 l/m 0 min 0 min 0 W/m 27,2 km/h (4 Bft)
14.05.2015 23:30 13,6 C 11,7 C 66 % 1010,1 hPa 0,0 l/m 0 min 0 min 0 W/m 23,0 km/h (4 Bft)
14.05.2015 23:32 13,6 C 11,7 C 66 % 1010,1 hPa 0,0 l/m 0 min 0 min 0 W/m 18,8 km/h (3 Bft)
14.05.2015 23:34 13,6 C 11,7 C 66 % 1010,2 hPa 0,0 l/m 0 min 0 min 0 W/m 20,9 km/h (4 Bft)
14.05.2015 23:36 13,6 C 11,7 C 66 % 1010,2 hPa 0,0 l/m 0 min 0 min 0 W/m 14,6 km/h (3 Bft)
14.05.2015 23:38 13,6 C 11,7 C 66 % 1010,2 hPa 0,0 l/m 0 min 0 min 0 W/m 14,6 km/h (3 Bft)
14.05.2015 23:40 13,6 C 11,7 C 66 % 1010,2 hPa 0,0 l/m 0 min 0 min 0 W/m 14,6 km/h (3 Bft)
14.05.2015 23:42 13,5 C 11,7 C 66 % 1010,2 hPa 0,0 l/m 0 min 0 min 0 W/m 16,7 km/h (3 Bft)
14.05.2015 23:44 13,5 C 11,7 C 66 % 1010,2 hPa 0,0 l/m 0 min 0 min 0 W/m 14,6 km/h (3 Bft)
14.05.2015 23:46 13,5 C 11,7 C 66 % 1010,2 hPa 0,0 l/m 0 min 0 min 0 W/m 18,8 km/h (3 Bft)
14.05.2015 23:48 13,5 C 11,7 C 66 % 1010,2 hPa 0,0 l/m 0 min 0 min 0 W/m 12,6 km/h (3 Bft)
14.05.2015 23:50 13,5 C 11,7 C 66 % 1010,2 hPa 0,0 l/m 0 min 0 min 0 W/m 16,7 km/h (3 Bft)
14.05.2015 23:52 13,5 C 11,7 C 66 % 1010,2 hPa 0,0 l/m 0 min 0 min 0 W/m 14,6 km/h (3 Bft)
14.05.2015 23:54 13,5 C 11,7 C 66 % 1010,2 hPa 0,0 l/m 0 min 0 min 0 W/m 18,8 km/h (3 Bft)
14.05.2015 23:56 13,5 C 11,7 C 66 % 1010,2 hPa 0,0 l/m 0 min 0 min 0 W/m 18,8 km/h (3 Bft)
14.05.2015 23:58 13,5 C 11,7 C 66 % 1010,2 hPa 0,0 l/m 0 min 0 min 0 W/m 10,5 km/h (2 Bft)
_ Min-Zeit 06:18 06:16 15:52 17:42 - - - - 06:08
Minimum _ 5,9 C 6,1 C 42 % 1009,1 hPa - - - - 0,0 km/h (0 Bft)
_ Max-Zeit 15:26 13:10 07:18 05:42 20:42 06:06 20:08 14:08 16:16
Maximum _ 20,2 C 20,0 C 91 % 1015,4 hPa 0,2 l/m 2 min 2 min 1019 W/m 27,2 km/h
O (4 Bft)
Durchschnitt _ 13,1 C 11,8 C 66 % 1012,8 hPa #0,2 l/m #11:40 h #54 min. 436 W/m 11,5 km/h (2 Bft)
© 2015 W. Hausmann